Observation data for Amarillo 9 North Northeast on 03/05/2021      Previous  Date  Next       Current Mesonet Observations  Soil Data  Daily Summary Page  Observations in Plain Language
KAM2 050600Z 31008KT 08/M01 A2996 RMK A01 T00771013  RH  053%=      5-min Rain = 0
KAM2 050601Z 32009KT 08/M01 A2996 RMK A01 T00761014  RH  053%=      5-min Rain = 0
KAM2 050602Z 32008KT 08/M01 A2996 RMK A01 T00751013  RH  053%=      5-min Rain = 0
KAM2 050603Z 31006KT 08/M01 A2996 RMK A01 T00751013  RH  053%=      5-min Rain = 0
KAM2 050604Z 32007KT 07/M01 A2996 RMK A01 T00741014  RH  054%=      5-min Rain = 0
KAM2 050605Z 32007KT 07/M01 A2996 RMK A01 T00731014  RH  054%=      5-min Rain = 0
KAM2 050606Z 32007KT 07/M01 A2996 RMK A01 T00721013  RH  054%=      5-min Rain = 0
KAM2 050607Z 32006KT 07/M01 A2996 RMK A01 T00721013  RH  054%=      5-min Rain = 0
KAM2 050608Z 32006KT 07/M01 A2996 RMK A01 T00731013  RH  055%=      5-min Rain = 0
KAM2 050609Z 32006KT 07/M01 A2996 RMK A01 T00721013  RH  055%=      5-min Rain = 0
KAM2 050610Z 32006KT 07/M01 A2996 RMK A01 T00721013  RH  055%=      5-min Rain = 0
KAM2 050611Z 31006KT 07/M01 A2996 RMK A01 T00711014  RH  055%=      5-min Rain = 0
KAM2 050612Z 31005KT 07/M02 A2996 RMK A01 T00691015  RH  055%=      5-min Rain = 0
KAM2 050613Z 30006KT 07/M02 A2996 RMK A01 T00681015  RH  055%=      5-min Rain = 0
KAM2 050614Z 29006KT 07/M02 A2996 RMK A01 T00661016  RH  056%=      5-min Rain = 0
KAM2 050615Z 29006KT 07/M02 A2996 RMK A01 T00651015  RH  056%=      5-min Rain = 0
KAM2 050616Z 29006KT 07/M02 A2996 RMK A01 T00651015  RH  057%=      5-min Rain = 0
KAM2 050617Z 28006KT 07/M02 A2996 RMK A01 T00651015  RH  057%=      5-min Rain = 0
KAM2 050618Z 28007KT 06/M02 A2996 RMK A01 T00641016  RH  057%=      5-min Rain = 0
KAM2 050619Z 28007KT 06/M02 A2996 RMK A01 T00631016  RH  057%=      5-min Rain = 0
KAM2 050620Z 28006KT 06/M02 A2996 RMK A01 T00621016  RH  057%=      5-min Rain = 0
KAM2 050621Z 28007KT 06/M02 A2996 RMK A01 T00611017  RH  057%=      5-min Rain = 0
KAM2 050622Z 29007KT 06/M02 A2996 RMK A01 T00591017  RH  058%=      5-min Rain = 0
KAM2 050623Z 29008KT 06/M02 A2996 RMK A01 T00591016  RH  058%=      5-min Rain = 0
KAM2 050624Z 29008KT 06/M02 A2996 RMK A01 T00591016  RH  058%=      5-min Rain = 0
KAM2 050625Z 29008KT 06/M02 A2996 RMK A01 T00611015  RH  058%=      5-min Rain = 0
KAM2 050626Z 29008KT 06/M02 A2996 RMK A01 T00611015  RH  058%=      5-min Rain = 0
KAM2 050627Z 29009KT 06/M02 A2996 RMK A01 T00621015  RH  058%=      5-min Rain = 0
KAM2 050628Z 29009KT 06/M02 A2996 RMK A01 T00611016  RH  058%=      5-min Rain = 0
KAM2 050629Z 29009KT 06/M02 A2997 RMK A01 T00601016  RH  058%=      5-min Rain = 0
KAM2 050630Z 29008KT 06/M02 A2997 RMK A01 T00611015  RH  058%=      5-min Rain = 0
KAM2 050631Z 29009KT 06/M01 A2997 RMK A01 T00611014  RH  058%=      5-min Rain = 0
KAM2 050632Z 30009KT 06/M01 A2997 RMK A01 T00611014  RH  058%=      5-min Rain = 0
KAM2 050633Z 29008KT 06/M01 A2996 RMK A01 T00611014  RH  059%=      5-min Rain = 0
KAM2 050634Z 29007KT 06/M02 A2996 RMK A01 T00611015  RH  058%=      5-min Rain = 0
KAM2 050635Z 29008KT 06/M02 A2996 RMK A01 T00601016  RH  058%=      5-min Rain = 0
KAM2 050636Z 28008KT 06/M02 A2996 RMK A01 T00581016  RH  059%=      5-min Rain = 0
KAM2 050637Z 28008KT 06/M02 A2997 RMK A01 T00561018  RH  059%=      5-min Rain = 0
KAM2 050638Z 29009KT 06/M02 A2997 RMK A01 T00551018  RH  060%=      5-min Rain = 0
KAM2 050639Z 29010KT 06/M02 A2997 RMK A01 T00551016  RH  060%=      5-min Rain = 0
KAM2 050640Z 30010KT 06/M01 A2997 RMK A01 T00571014  RH  060%=      5-min Rain = 0
KAM2 050641Z 30011KT 06/M01 A2997 RMK A01 T00601013  RH  060%=      5-min Rain = 0
KAM2 050642Z 30011KT 06/M01 A2997 RMK A01 T00611012  RH  060%=      5-min Rain = 0
KAM2 050643Z 30012KT 06/M01 A2997 RMK A01 T00641010  RH  059%=      5-min Rain = 0
KAM2 050644Z 30010KT 07/M01 A2997 RMK A01 T00661009  RH  059%=      5-min Rain = 0
KAM2 050645Z 30010KT 07/M01 A2997 RMK A01 T00661010  RH  058%=      5-min Rain = 0
KAM2 050646Z 30009KT 07/M01 A2997 RMK A01 T00651011  RH  058%=      5-min Rain = 0
KAM2 050647Z 30008KT 06/M01 A2997 RMK A01 T00641011  RH  058%=      5-min Rain = 0
KAM2 050648Z 30008KT 06/M01 A2997 RMK A01 T00631012  RH  059%=      5-min Rain = 0
KAM2 050649Z 30008KT 06/M01 A2997 RMK A01 T00621012  RH  059%=      5-min Rain = 0
KAM2 050650Z 29008KT 06/M01 A2997 RMK A01 T00611013  RH  059%=      5-min Rain = 0
KAM2 050651Z 29007KT 06/M01 A2997 RMK A01 T00601013  RH  059%=      5-min Rain = 0
KAM2 050652Z 30008KT 06/M01 A2997 RMK A01 T00601012  RH  060%=      5-min Rain = 0
KAM2 050653Z 30008KT 06/M01 A2997 RMK A01 T00601012  RH  060%=      5-min Rain = 0
KAM2 050654Z 29007KT 06/M01 A2997 RMK A01 T00601012  RH  060%=      5-min Rain = 0
KAM2 050655Z 30007KT 06/M01 A2997 RMK A01 T00601012  RH  060%=      5-min Rain = 0
KAM2 050656Z 30007KT 06/M01 A2997 RMK A01 T00591012  RH  060%=      5-min Rain = 0
KAM2 050657Z 30009KT 06/M01 A2997 RMK A01 T00591011  RH  061%=      5-min Rain = 0
KAM2 050658Z 30007KT 06/M01 A2997 RMK A01 T00601010  RH  061%=      5-min Rain = 0
KAM2 050659Z 30008KT 06/M01 A2997 RMK A01 T00601010  RH  061%=      5-min Rain = 0
KAM2 050700Z 30008KT 06/M01 A2997 RMK A01 T00601010  RH  061%=      5-min Rain = 0
KAM2 050701Z 30008KT 06/M01 A2997 RMK A01 T00591011  RH  061%=      5-min Rain = 0
KAM2 050702Z 30007KT 06/M01 A2997 RMK A01 T00591010  RH  061%=      5-min Rain = 0
KAM2 050703Z 30006KT 06/M01 A2997 RMK A01 T00591010  RH  061%=      5-min Rain = 0
KAM2 050704Z 30007KT 06/M01 A2997 RMK A01 T00581010  RH  061%=      5-min Rain = 0
KAM2 050705Z 29007KT 06/M01 A2997 RMK A01 T00571011  RH  062%=      5-min Rain = 0
KAM2 050706Z 28007KT 06/M01 A2997 RMK A01 T00571010  RH  062%=      5-min Rain = 0
KAM2 050707Z 28007KT 06/M01 A2997 RMK A01 T00561011  RH  062%=      5-min Rain = 0
KAM2 050708Z 28008KT 06/M01 A2997 RMK A01 T00551012  RH  062%=      5-min Rain = 0
KAM2 050709Z 28007KT 05/M01 A2997 RMK A01 T00541012  RH  062%=      5-min Rain = 0
KAM2 050710Z 28008KT 05/M01 A2997 RMK A01 T00531013  RH  062%=      5-min Rain = 0
KAM2 050711Z 28008KT 05/M01 A2997 RMK A01 T00531013  RH  062%=      5-min Rain = 0
KAM2 050712Z 28008KT 05/M01 A2997 RMK A01 T00531013  RH  062%=      5-min Rain = 0
KAM2 050713Z 28008KT 05/M01 A2997 RMK A01 T00521014  RH  062%=      5-min Rain = 0
KAM2 050714Z 27008KT 05/M02 A2997 RMK A01 T00511015  RH  062%=      5-min Rain = 0
KAM2 050715Z 27007KT 05/M02 A2997 RMK A01 T00501015  RH  063%=      5-min Rain = 0
KAM2 050716Z 27007KT 05/M02 A2997 RMK A01 T00491015  RH  063%=      5-min Rain = 0
KAM2 050717Z 27007KT 05/M02 A2997 RMK A01 T00481016  RH  063%=      5-min Rain = 0
KAM2 050718Z 27007KT 05/M02 A2997 RMK A01 T00471016  RH  064%=      5-min Rain = 0
KAM2 050719Z 27007KT 05/M02 A2997 RMK A01 T00461016  RH  064%=      5-min Rain = 0
KAM2 050720Z 27007KT 05/M02 A2997 RMK A01 T00461016  RH  064%=      5-min Rain = 0
KAM2 050721Z 27008KT 05/M02 A2997 RMK A01 T00451016  RH  064%=      5-min Rain = 0
KAM2 050722Z 27007KT 05/M02 A2997 RMK A01 T00461016  RH  064%=      5-min Rain = 0
KAM2 050723Z 27007KT 05/M02 A2997 RMK A01 T00451016  RH  064%=      5-min Rain = 0
KAM2 050724Z 27008KT 05/M02 A2997 RMK A01 T00451016  RH  065%=      5-min Rain = 0
KAM2 050725Z 27008KT 05/M02 A2997 RMK A01 T00451016  RH  065%=      5-min Rain = 0
KAM2 050726Z 27008KT 04/M02 A2997 RMK A01 T00441016  RH  065%=      5-min Rain = 0
KAM2 050727Z 26008KT 04/M02 A2997 RMK A01 T00441016  RH  065%=      5-min Rain = 0
KAM2 050728Z 26008KT 04/M02 A2997 RMK A01 T00441016  RH  065%=      5-min Rain = 0
KAM2 050729Z 27008KT 04/M02 A2997 RMK A01 T00441015  RH  065%=      5-min Rain = 0
KAM2 050730Z 27008KT 04/M02 A2997 RMK A01 T00441015  RH  066%=      5-min Rain = 0
KAM2 050731Z 27007KT 05/M01 A2997 RMK A01 T00451014  RH  065%=      5-min Rain = 0
KAM2 050732Z 27007KT 05/M01 A2997 RMK A01 T00461014  RH  065%=      5-min Rain = 0
KAM2 050733Z 27007KT 05/M01 A2997 RMK A01 T00461014  RH  065%=      5-min Rain = 0
KAM2 050734Z 27007KT 05/M01 A2997 RMK A01 T00461014  RH  065%=      5-min Rain = 0
KAM2 050735Z 27006KT 05/M01 A2997 RMK A01 T00461014  RH  065%=      5-min Rain = 0
KAM2 050736Z 27006KT 05/M01 A2997 RMK A01 T00461014  RH  065%=      5-min Rain = 0
KAM2 050737Z 27006KT 05/M01 A2997 RMK A01 T00461014  RH  065%=      5-min Rain = 0
KAM2 050738Z 27005KT 05/M01 A2997 RMK A01 T00461014  RH  065%=      5-min Rain = 0
KAM2 050739Z 27006KT 05/M01 A2997 RMK A01 T00461014  RH  065%=      5-min Rain = 0
KAM2 050740Z 27007KT 05/M01 A2997 RMK A01 T00461014  RH  065%=      5-min Rain = 0
KAM2 050741Z 27008KT 05/M01 A2997 RMK A01 T00461013  RH  066%=      5-min Rain = 0
KAM2 050742Z 27007KT 05/M01 A2997 RMK A01 T00481012  RH  065%=      5-min Rain = 0
KAM2 050743Z 27007KT 05/M01 A2997 RMK A01 T00481012  RH  065%=      5-min Rain = 0
KAM2 050744Z 27007KT 05/M01 A2997 RMK A01 T00491012  RH  065%=      5-min Rain = 0
KAM2 050745Z 27008KT 05/M01 A2997 RMK A01 T00491011  RH  065%=      5-min Rain = 0
KAM2 050746Z 27008KT 05/M01 A2997 RMK A01 T00491011  RH  065%=      5-min Rain = 0
KAM2 050747Z 27007KT 05/M01 A2997 RMK A01 T00501011  RH  065%=      5-min Rain = 0
KAM2 050748Z 27007KT 05/M01 A2997 RMK A01 T00491011  RH  065%=      5-min Rain = 0
KAM2 050749Z 27007KT 05/M01 A2997 RMK A01 T00481012  RH  065%=      5-min Rain = 0
KAM2 050750Z 26007KT 05/M01 A2997 RMK A01 T00471012  RH  065%=      5-min Rain = 0
KAM2 050751Z 26008KT 05/M01 A2997 RMK A01 T00471012  RH  066%=      5-min Rain = 0
KAM2 050752Z 26009KT 05/M01 A2997 RMK A01 T00461012  RH  066%=      5-min Rain = 0
KAM2 050753Z 26009KT 05/M01 A2997 RMK A01 T00461011  RH  066%=      5-min Rain = 0
KAM2 050754Z 27008KT 05/M01 A2997 RMK A01 T00461010  RH  067%=      5-min Rain = 0
KAM2 050755Z 27007KT 05/M01 A2997 RMK A01 T00471010  RH  067%=      5-min Rain = 0
KAM2 050756Z 27007KT 05/M01 A2998 RMK A01 T00471010  RH  067%=      5-min Rain = 0
KAM2 050757Z 27007KT 05/M01 A2998 RMK A01 T00471010  RH  067%=      5-min Rain = 0
KAM2 050758Z 27007KT 05/M01 A2998 RMK A01 T00461010  RH  067%=      5-min Rain = 0
KAM2 050759Z 27007KT 05/M01 A2998 RMK A01 T00461009  RH  067%=      5-min Rain = 0
KAM2 050800Z 27007KT 05/M01 A2998 RMK A01 T00461009  RH  068%=      5-min Rain = 0
KAM2 050801Z 28007KT 05/M01 A2998 RMK A01 T00451009  RH  068%=      5-min Rain = 0
KAM2 050802Z 28008KT 05/M01 A2998 RMK A01 T00451009  RH  068%=      5-min Rain = 0
KAM2 050803Z 28008KT 05/M01 A2998 RMK A01 T00461008  RH  068%=      5-min Rain = 0
KAM2 050804Z 28008KT 05/M01 A2998 RMK A01 T00471007  RH  068%=      5-min Rain = 0
KAM2 050805Z 28008KT 05/M01 A2998 RMK A01 T00471007  RH  068%=      5-min Rain = 0
KAM2 050806Z 28006KT 05/M01 A2998 RMK A01 T00481006  RH  068%=      5-min Rain = 0
KAM2 050807Z 28007KT 05/M01 A2998 RMK A01 T00481006  RH  068%=      5-min Rain = 0
KAM2 050808Z 27006KT 05/M01 A2998 RMK A01 T00481006  RH  068%=      5-min Rain = 0
KAM2 050809Z 27007KT 05/M01 A2998 RMK A01 T00471007  RH  068%=      5-min Rain = 0
KAM2 050810Z 28007KT 05/M01 A2998 RMK A01 T00471007  RH  068%=      5-min Rain = 0
KAM2 050811Z 28007KT 05/M01 A2998 RMK A01 T00471007  RH  068%=      5-min Rain = 0
KAM2 050812Z 27006KT 05/M01 A2998 RMK A01 T00471006  RH  068%=      5-min Rain = 0
KAM2 050813Z 28007KT 05/M01 A2998 RMK A01 T00481006  RH  068%=      5-min Rain = 0
KAM2 050814Z 28007KT 05/M01 A2998 RMK A01 T00471006  RH  068%=      5-min Rain = 0
KAM2 050815Z 27007KT 05/M01 A2998 RMK A01 T00471006  RH  069%=      5-min Rain = 0
KAM2 050816Z 28007KT 05/M01 A2998 RMK A01 T00471006  RH  069%=      5-min Rain = 0
KAM2 050817Z 28007KT 05/M01 A2998 RMK A01 T00471005  RH  069%=      5-min Rain = 0
KAM2 050818Z 27006KT 05/M01 A2998 RMK A01 T00471005  RH  069%=      5-min Rain = 0
KAM2 050819Z 28008KT 05/M01 A2998 RMK A01 T00471005  RH  069%=      5-min Rain = 0
KAM2 050820Z 27007KT 05/M01 A2998 RMK A01 T00471005  RH  069%=      5-min Rain = 0
KAM2 050821Z 27007KT 05/M01 A2998 RMK A01 T00471005  RH  069%=      5-min Rain = 0
KAM2 050822Z 27007KT 05/M01 A2998 RMK A01 T00471005  RH  069%=      5-min Rain = 0
KAM2 050823Z 27007KT 05/M01 A2998 RMK A01 T00461005  RH  070%=      5-min Rain = 0
KAM2 050824Z 27007KT 05/M00 A2997 RMK A01 T00461004  RH  070%=      5-min Rain = 0
KAM2 050825Z 28007KT 05/M00 A2997 RMK A01 T00471004  RH  070%=      5-min Rain = 0
KAM2 050826Z 27007KT 05/M00 A2997 RMK A01 T00471004  RH  070%=      5-min Rain = 0
KAM2 050827Z 28007KT 05/M00 A2997 RMK A01 T00471004  RH  070%=      5-min Rain = 0
KAM2 050828Z 28007KT 05/M00 A2997 RMK A01 T00461004  RH  070%=      5-min Rain = 0
KAM2 050829Z 28007KT 05/M00 A2997 RMK A01 T00461003  RH  070%=      5-min Rain = 0
KAM2 050830Z 28007KT 05/M00 A2997 RMK A01 T00471003  RH  070%=      5-min Rain = 0
KAM2 050831Z 27007KT 05/M00 A2997 RMK A01 T00471002  RH  070%=      5-min Rain = 0
KAM2 050832Z 28008KT 05/M00 A2997 RMK A01 T00481002  RH  070%=      5-min Rain = 0
KAM2 050833Z 28007KT 05/M00 A2997 RMK A01 T00491001  RH  070%=      5-min Rain = 0
KAM2 050834Z 27008KT 05/M00 A2997 RMK A01 T00491001  RH  070%=      5-min Rain = 0
KAM2 050835Z 27008KT 05/M00 A2997 RMK A01 T00491001  RH  070%=      5-min Rain = 0
KAM2 050836Z 28008KT 05/M00 A2997 RMK A01 T00491001  RH  070%=      5-min Rain = 0
KAM2 050837Z 28009KT 05/00 A2997 RMK A01 T00490000  RH  071%=      5-min Rain = 0
KAM2 050838Z 28008KT 05/00 A2997 RMK A01 T00500000  RH  070%=      5-min Rain = 0
KAM2 050839Z 28009KT 05/00 A2997 RMK A01 T00500001  RH  070%=      5-min Rain = 0
KAM2 050840Z 28010KT 05/00 A2997 RMK A01 T00510002  RH  070%=      5-min Rain = 0
KAM2 050841Z 28011KT 05/00 A2997 RMK A01 T00520002  RH  070%=      5-min Rain = 0
KAM2 050842Z 28010KT 05/00 A2997 RMK A01 T00520003  RH  070%=      5-min Rain = 0
KAM2 050843Z 28010KT 05/00 A2997 RMK A01 T00530004  RH  070%=      5-min Rain = 0
KAM2 050844Z 28011KT 05/00 A2997 RMK A01 T00530004  RH  070%=      5-min Rain = 0
KAM2 050845Z 28010KT 05/00 A2997 RMK A01 T00540004  RH  070%=      5-min Rain = 0
KAM2 050846Z 28010KT 05/00 A2997 RMK A01 T00540004  RH  070%=      5-min Rain = 0
KAM2 050847Z 28009KT 05/00 A2997 RMK A01 T00540004  RH  070%=      5-min Rain = 0
KAM2 050848Z 28010KT 05/00 A2997 RMK A01 T00540004  RH  070%=      5-min Rain = 0
KAM2 050849Z 29009KT 05/00 A2997 RMK A01 T00530004  RH  071%=      5-min Rain = 0
KAM2 050850Z 29009KT 05/00 A2997 RMK A01 T00530004  RH  071%=      5-min Rain = 0
KAM2 050851Z 28011KT 05/00 A2997 RMK A01 T00520004  RH  071%=      5-min Rain = 0
KAM2 050852Z 28010KT 05/01 A2997 RMK A01 T00530005  RH  071%=      5-min Rain = 0
KAM2 050853Z 28010KT 05/01 A2997 RMK A01 T00530005  RH  071%=      5-min Rain = 0
KAM2 050854Z 28009KT 05/01 A2997 RMK A01 T00530005  RH  071%=      5-min Rain = 0
KAM2 050855Z 28009KT 05/00 A2997 RMK A01 T00530004  RH  071%=      5-min Rain = 0
KAM2 050856Z 28009KT 05/01 A2997 RMK A01 T00530005  RH  071%=      5-min Rain = 0
KAM2 050857Z 28008KT 05/01 A2997 RMK A01 T00520005  RH  071%=      5-min Rain = 0
KAM2 050858Z 29009KT 05/01 A2997 RMK A01 T00520005  RH  072%=      5-min Rain = 0
KAM2 050859Z 29009KT 05/01 A2997 RMK A01 T00520005  RH  072%=      5-min Rain = 0
KAM2 050900Z 29009KT 05/01 A2997 RMK A01 T00520005  RH  072%=      5-min Rain = 0
KAM2 050901Z 28009KT 05/01 A2997 RMK A01 T00520005  RH  072%=      5-min Rain = 0
KAM2 050902Z 28009KT 05/01 A2997 RMK A01 T00520005  RH  072%=      5-min Rain = 0
KAM2 050903Z 28009KT 05/01 A2997 RMK A01 T00530006  RH  072%=      5-min Rain = 0
KAM2 050904Z 28007KT 05/01 A2997 RMK A01 T00530006  RH  072%=      5-min Rain = 0
KAM2 050905Z 29009KT 05/01 A2997 RMK A01 T00530006  RH  072%=      5-min Rain = 0
KAM2 050906Z 29010KT 05/01 A2997 RMK A01 T00530006  RH  072%=      5-min Rain = 0
KAM2 050907Z 29009KT 05/01 A2997 RMK A01 T00540007  RH  072%=      5-min Rain = 0
KAM2 050908Z 29009KT 05/01 A2997 RMK A01 T00540007  RH  072%=      5-min Rain = 0
KAM2 050909Z 29009KT 05/01 A2997 RMK A01 T00540007  RH  072%=      5-min Rain = 0
KAM2 050910Z 28008KT 05/01 A2997 RMK A01 T00540008  RH  072%=      5-min Rain = 0
KAM2 050911Z 28009KT 05/01 A2997 RMK A01 T00540008  RH  072%=      5-min Rain = 0
KAM2 050912Z 29008KT 05/01 A2997 RMK A01 T00540008  RH  072%=      5-min Rain = 0
KAM2 050913Z 29009KT 06/01 A2998 RMK A01 T00550008  RH  072%=      5-min Rain = 0
KAM2 050914Z 29007KT 06/01 A2998 RMK A01 T00550008  RH  072%=      5-min Rain = 0
KAM2 050915Z 29008KT 06/01 A2998 RMK A01 T00560008  RH  072%=      5-min Rain = 0
KAM2 050916Z 29009KT 06/01 A2998 RMK A01 T00560009  RH  072%=      5-min Rain = 0
KAM2 050917Z 30010KT 06/01 A2998 RMK A01 T00570009  RH  072%=      5-min Rain = 0
KAM2 050918Z 30011KT 06/01 A2998 RMK A01 T00580010  RH  072%=      5-min Rain = 0
KAM2 050919Z 29009KT 06/01 A2998 RMK A01 T00580011  RH  071%=      5-min Rain = 0
KAM2 050920Z 30010KT 06/01 A2998 RMK A01 T00590011  RH  071%=      5-min Rain = 0
KAM2 050921Z 30010KT 06/01 A2998 RMK A01 T00590011  RH  071%=      5-min Rain = 0
KAM2 050922Z 29010KT 06/01 A2998 RMK A01 T00600012  RH  071%=      5-min Rain = 0
KAM2 050923Z 30010KT 06/01 A2998 RMK A01 T00610013  RH  071%=      5-min Rain = 0
KAM2 050924Z 30014KT 06/01 A2997 RMK A01 T00620014  RH  071%=      5-min Rain = 0
KAM2 050925Z 30013KT 06/02 A2998 RMK A01 T00640016  RH  071%=      5-min Rain = 0
KAM2 050926Z 30013KT 07/02 A2998 RMK A01 T00650016  RH  071%=      5-min Rain = 0
KAM2 050927Z 30013KT 07/02 A2998 RMK A01 T00650016  RH  071%=      5-min Rain = 0
KAM2 050928Z 30012KT 07/02 A2998 RMK A01 T00660016  RH  070%=      5-min Rain = 0
KAM2 050929Z 30012KT 07/02 A2998 RMK A01 T00660016  RH  070%=      5-min Rain = 0
KAM2 050930Z 31011KT 07/02 A2998 RMK A01 T00660016  RH  070%=      5-min Rain = 0
KAM2 050931Z 31011KT 07/02 A2998 RMK A01 T00670017  RH  071%=      5-min Rain = 0
KAM2 050932Z 31010KT 07/02 A2998 RMK A01 T00670017  RH  070%=      5-min Rain = 0
KAM2 050933Z 30011KT 07/02 A2997 RMK A01 T00660016  RH  070%=      5-min Rain = 0
KAM2 050934Z 30013KT 07/02 A2997 RMK A01 T00670017  RH  071%=      5-min Rain = 0
KAM2 050935Z 30012KT 07/02 A2997 RMK A01 T00670018  RH  071%=      5-min Rain = 0
KAM2 050936Z 30012KT 07/02 A2997 RMK A01 T00670018  RH  071%=      5-min Rain = 0
KAM2 050937Z 31011KT 07/02 A2997 RMK A01 T00670018  RH  070%=      5-min Rain = 0
KAM2 050938Z 30011KT 07/02 A2997 RMK A01 T00670017  RH  070%=      5-min Rain = 0
KAM2 050939Z 30010KT 07/02 A2997 RMK A01 T00670017  RH  070%=      5-min Rain = 0
KAM2 050940Z 30011KT 07/02 A2997 RMK A01 T00680017  RH  070%=      5-min Rain = 0
KAM2 050941Z 30011KT 07/02 A2997 RMK A01 T00670017  RH  070%=      5-min Rain = 0
KAM2 050942Z 30010KT 07/02 A2997 RMK A01 T00680018  RH  070%=      5-min Rain = 0
KAM2 050943Z 30009KT 07/02 A2997 RMK A01 T00680018  RH  070%=      5-min Rain = 0
KAM2 050944Z 30011KT 07/02 A2997 RMK A01 T00670018  RH  071%=      5-min Rain = 0
KAM2 050945Z 31010KT 07/02 A2997 RMK A01 T00680018  RH  071%=      5-min Rain = 0
KAM2 050946Z 30009KT 07/02 A2997 RMK A01 T00670018  RH  071%=      5-min Rain = 0
KAM2 050947Z 30010KT 07/02 A2997 RMK A01 T00680018  RH  071%=      5-min Rain = 0
KAM2 050948Z 31010KT 07/02 A2997 RMK A01 T00680018  RH  071%=      5-min Rain = 0
KAM2 050949Z 30010KT 07/02 A2998 RMK A01 T00680019  RH  071%=      5-min Rain = 0
KAM2 050950Z 31010KT 07/02 A2998 RMK A01 T00670019  RH  071%=      5-min Rain = 0
KAM2 050951Z 31008KT 07/02 A2998 RMK A01 T00670019  RH  071%=      5-min Rain = 0
KAM2 050952Z 31009KT 07/02 A2998 RMK A01 T00680019  RH  071%=      5-min Rain = 0
KAM2 050953Z 30009KT 07/02 A2998 RMK A01 T00680020  RH  071%=      5-min Rain = 0
KAM2 050954Z 31010KT 07/02 A2998 RMK A01 T00680021  RH  071%=      5-min Rain = 0
KAM2 050955Z 31010KT 07/02 A2998 RMK A01 T00680020  RH  071%=      5-min Rain = 0
KAM2 050956Z 31010KT 07/02 A2998 RMK A01 T00690021  RH  071%=      5-min Rain = 0
KAM2 050957Z 31010KT 07/02 A2998 RMK A01 T00690021  RH  071%=      5-min Rain = 0
KAM2 050958Z 31010KT 07/02 A2998 RMK A01 T00690021  RH  072%=      5-min Rain = 0
KAM2 050959Z 31011KT 07/02 A2998 RMK A01 T00690021  RH  072%=      5-min Rain = 0
KAM2 051000Z 31011KT 07/02 A2998 RMK A01 T00690022  RH  072%=      5-min Rain = 0
KAM2 051001Z 30009KT 07/02 A2998 RMK A01 T00700023  RH  072%=      5-min Rain = 0
KAM2 051002Z 31009KT 07/02 A2997 RMK A01 T00700023  RH  072%=      5-min Rain = 0
KAM2 051003Z 32007KT 07/02 A2998 RMK A01 T00710024  RH  072%=      5-min Rain = 0
KAM2 051004Z 31008KT 07/02 A2997 RMK A01 T00710024  RH  072%=      5-min Rain = 0
KAM2 051005Z 31011KT 07/03 A2997 RMK A01 T00720025  RH  072%=      5-min Rain = 0
KAM2 051006Z 31011G16KT 07/03 A2997 RMK A01 T00720026  RH  073%=      5-min Rain = 0
KAM2 051007Z 31014KT 07/03 A2997 RMK A01 T00730027  RH  073%=      5-min Rain = 0
KAM2 051008Z 31013KT 07/03 A2997 RMK A01 T00730028  RH  073%=      5-min Rain = 0
KAM2 051009Z 32013KT 07/03 A2997 RMK A01 T00740030  RH  073%=      5-min Rain = 0
KAM2 051010Z 32012KT 08/03 A2997 RMK A01 T00750031  RH  074%=      5-min Rain = 0
KAM2 051011Z 32014KT 08/03 A2997 RMK A01 T00750032  RH  074%=      5-min Rain = 0
KAM2 051012Z 32013KT 08/03 A2997 RMK A01 T00760034  RH  075%=      5-min Rain = 0
KAM2 051013Z 32014KT 08/04 A2997 RMK A01 T00780035  RH  075%=      5-min Rain = 0
KAM2 051014Z 32014KT 08/04 A2997 RMK A01 T00780035  RH  074%=      5-min Rain = 0
KAM2 051015Z 32013KT 08/04 A2997 RMK A01 T00780035  RH  074%=      5-min Rain = 0
KAM2 051016Z 32013KT 08/04 A2997 RMK A01 T00790036  RH  074%=      5-min Rain = 0
KAM2 051017Z 32013KT 08/04 A2997 RMK A01 T00790038  RH  075%=      5-min Rain = 0
KAM2 051018Z 32012KT 08/04 A2997 RMK A01 T00790038  RH  075%=      5-min Rain = 0
KAM2 051019Z 33014KT 08/04 A2997 RMK A01 T00800039  RH  075%=      5-min Rain = 0
KAM2 051020Z 32013KT 08/04 A2997 RMK A01 T00800040  RH  076%=      5-min Rain = 0
KAM2 051021Z 33012KT 08/04 A2997 RMK A01 T00810041  RH  076%=      5-min Rain = 0
KAM2 051022Z 33014KT 08/04 A2997 RMK A01 T00810042  RH  076%=      5-min Rain = 0
KAM2 051023Z 33013G18KT 08/05 A2997 RMK A01 T00810045  RH  078%=      5-min Rain = 0
KAM2 051024Z 33013KT 08/05 A2997 RMK A01 T00820046  RH  078%=      5-min Rain = 0
KAM2 051025Z 33013KT 08/05 A2997 RMK A01 T00830046  RH  078%=      5-min Rain = 0
KAM2 051026Z 33014KT 08/05 A2997 RMK A01 T00830047  RH  078%=      5-min Rain = 0
KAM2 051027Z 33017KT 08/05 A2997 RMK A01 T00830047  RH  078%=      5-min Rain = 0
KAM2 051028Z 33015KT 08/05 A2997 RMK A01 T00840048  RH  078%=      5-min Rain = 0
KAM2 051029Z 33017KT 08/05 A2997 RMK A01 T00840048  RH  078%=      5-min Rain = 0
KAM2 051030Z 33014G19KT 09/05 A2997 RMK A01 T00850049  RH  078%=      5-min Rain = 0
KAM2 051031Z 33016KT 08/05 A2997 RMK A01 T00840048  RH  078%=      5-min Rain = 0
KAM2 051032Z 33015KT 09/05 A2997 RMK A01 T00850049  RH  078%=      5-min Rain = 0
KAM2 051033Z 33015G21KT 08/05 A2997 RMK A01 T00840048  RH  078%=      5-min Rain = 0
KAM2 051034Z 33017KT 08/05 A2997 RMK A01 T00840049  RH  078%=      5-min Rain = 0
KAM2 051035Z 33014G19KT 09/05 A2997 RMK A01 T00850049  RH  078%=      5-min Rain = 0
KAM2 051036Z 33013KT 09/05 A2997 RMK A01 T00850049  RH  078%=      5-min Rain = 0
KAM2 051037Z 34012KT 09/05 A2997 RMK A01 T00850049  RH  078%=      5-min Rain = 0
KAM2 051038Z 34014KT 09/05 A2997 RMK A01 T00850049  RH  078%=      5-min Rain = 0
KAM2 051039Z 33015KT 09/05 A2997 RMK A01 T00850049  RH  078%=      5-min Rain = 0
KAM2 051040Z 33013KT 09/05 A2998 RMK A01 T00850049  RH  078%=      5-min Rain = 0
KAM2 051041Z 33015KT 09/05 A2998 RMK A01 T00850049  RH  078%=      5-min Rain = 0
KAM2 051042Z 33014KT 09/05 A2998 RMK A01 T00850049  RH  078%=      5-min Rain = 0
KAM2 051043Z 33014KT 09/05 A2998 RMK A01 T00850049  RH  078%=      5-min Rain = 0
KAM2 051044Z 33014KT 09/05 A2998 RMK A01 T00850050  RH  078%=      5-min Rain = 0
KAM2 051045Z 33016KT 09/05 A2998 RMK A01 T00850050  RH  079%=      5-min Rain = 0
KAM2 051046Z 34014KT 09/05 A2998 RMK A01 T00850050  RH  079%=      5-min Rain = 0
KAM2 051047Z 33013KT 09/05 A2998 RMK A01 T00850050  RH  079%=      5-min Rain = 0
KAM2 051048Z 33012KT 09/05 A2998 RMK A01 T00850050  RH  079%=      5-min Rain = 0
KAM2 051049Z 34014KT 08/05 A2998 RMK A01 T00840050  RH  079%=      5-min Rain = 0
KAM2 051050Z 34012KT 08/05 A2998 RMK A01 T00840050  RH  079%=      5-min Rain = 0
KAM2 051051Z 34012KT 08/05 A2998 RMK A01 T00840050  RH  079%=      5-min Rain = 0
KAM2 051052Z 33012KT 08/05 A2998 RMK A01 T00840050  RH  079%=      5-min Rain = 0
KAM2 051053Z 34012KT 08/05 A2999 RMK A01 T00840050  RH  079%=      5-min Rain = 0
KAM2 051054Z 34014KT 08/05 A2999 RMK A01 T00840050  RH  079%=      5-min Rain = 0
KAM2 051055Z 34013G18KT 08/05 A2999 RMK A01 T00840050  RH  079%=      5-min Rain = 0
KAM2 051056Z 34016KT 08/05 A2999 RMK A01 T00840050  RH  079%=      5-min Rain = 0
KAM2 051057Z 34018KT 08/05 A2999 RMK A01 T00840050  RH  079%=      5-min Rain = 0
KAM2 051058Z 34019KT 08/05 A2999 RMK A01 T00840050  RH  079%=      5-min Rain = 0
KAM2 051059Z 34017KT 08/05 A2999 RMK A01 T00840050  RH  079%=      5-min Rain = 0
KAM2 051100Z 34019KT 08/05 A2999 RMK A01 T00840050  RH  079%=      5-min Rain = 0
KAM2 051101Z 34019KT 08/05 A2999 RMK A01 T00840050  RH  079%=      5-min Rain = 0
KAM2 051102Z 34017G22KT 08/05 A2999 RMK A01 T00840051  RH  080%=      5-min Rain = 0
KAM2 051103Z 34015KT 08/05 A2999 RMK A01 T00840051  RH  080%=      5-min Rain = 0
KAM2 051104Z 35015KT 08/05 A2999 RMK A01 T00840051  RH  080%=      5-min Rain = 0
KAM2 051105Z 35017G25KT 08/05 A30 RMK A01 T00840050  RH  080%=      5-min Rain = 0
KAM2 051106Z 34020KT 08/05 A2999 RMK A01 T00830050  RH  080%=      5-min Rain = 0
KAM2 051107Z 35023KT 08/05 A2999 RMK A01 T00830050  RH  080%=      5-min Rain = 0
KAM2 051108Z 35020G26KT 08/05 A30 RMK A01 T00820050  RH  080%=      5-min Rain = 0
KAM2 051109Z 36017KT 08/05 A30 RMK A01 T00820050  RH  080%=      5-min Rain = 0
KAM2 051110Z 35019G24KT 08/05 A30 RMK A01 T00810050  RH  081%=      5-min Rain = 0
KAM2 051111Z 35020G25KT 08/05 A30 RMK A01 T00810050  RH  081%=      5-min Rain = 0
KAM2 051112Z 35020KT 08/05 A30 RMK A01 T00810050  RH  081%=      5-min Rain = 0
KAM2 051113Z 35017G22KT 08/05 A30 RMK A01 T00810050  RH  081%=      5-min Rain = 0
KAM2 051114Z 35019KT 08/05 A30 RMK A01 T00810050  RH  081%=      5-min Rain = 0
KAM2 051115Z 35016KT 08/05 A30 RMK A01 T00810050  RH  081%=      5-min Rain = 0
KAM2 051116Z 35017KT 08/05 A30 RMK A01 T00810051  RH  081%=      5-min Rain = 0
KAM2 051117Z 34015KT 08/05 A30 RMK A01 T00810050  RH  081%=      5-min Rain = 0
KAM2 051118Z 35016KT 08/05 A30 RMK A01 T00810051  RH  081%=      5-min Rain = 0
KAM2 051119Z 35017G22KT 08/05 A30 RMK A01 T00810051  RH  081%=      5-min Rain = 0
KAM2 051120Z 35020KT 08/05 A30 RMK A01 T00810051  RH  081%=      5-min Rain = 0
KAM2 051121Z 34018G24KT 08/05 A30 RMK A01 T00810051  RH  081%=      5-min Rain = 0
KAM2 051122Z 35020KT 08/05 A30 RMK A01 T00810051  RH  081%=      5-min Rain = 0
KAM2 051123Z 35021KT 08/05 A30 RMK A01 T00810051  RH  081%=      5-min Rain = 0
KAM2 051124Z 34017KT 08/05 A30 RMK A01 T00810051  RH  081%=      5-min Rain = 0
KAM2 051125Z 34018G24KT 08/05 A30 RMK A01 T00810051  RH  081%=      5-min Rain = 0
KAM2 051126Z 35016KT 08/05 A30 RMK A01 T00810051  RH  081%=      5-min Rain = 0
KAM2 051127Z 35018KT 08/05 A3001 RMK A01 T00820052  RH  081%=      5-min Rain = 0
KAM2 051128Z 35018KT 08/05 A3001 RMK A01 T00820051  RH  081%=      5-min Rain = 0
KAM2 051129Z 35017G22KT 08/05 A3001 RMK A01 T00820051  RH  081%=      5-min Rain = 0
KAM2 051130Z 35016KT 08/05 A3001 RMK A01 T00820051  RH  081%=      5-min Rain = 0
KAM2 051131Z 34017G22KT 08/05 A3001 RMK A01 T00820052  RH  081%=      5-min Rain = 0
KAM2 051132Z 36016KT 08/05 A3001 RMK A01 T00830052  RH  081%=      5-min Rain = 0
KAM2 051133Z 35018KT 08/05 A3001 RMK A01 T00830052  RH  081%=      5-min Rain = 0
KAM2 051134Z 35019KT 08/05 A3001 RMK A01 T00820051  RH  081%=      5-min Rain = 0
KAM2 051135Z 35018KT 08/05 A3001 RMK A01 T00830052  RH  081%=      5-min Rain = 0
KAM2 051136Z 35016KT 08/05 A3001 RMK A01 T00830052  RH  081%=      5-min Rain = 0
KAM2 051137Z 35015KT 08/05 A3001 RMK A01 T00830052  RH  081%=      5-min Rain = 0
KAM2 051138Z 35012KT 08/05 A3001 RMK A01 T00830052  RH  081%=      5-min Rain = 0
KAM2 051139Z 35017KT 08/05 A3001 RMK A01 T00830052  RH  081%=      5-min Rain = 0
KAM2 051140Z 35017G23KT 08/05 A3001 RMK A01 T00830052  RH  081%=      5-min Rain = 0
KAM2 051141Z 35014KT 08/05 A3001 RMK A01 T00830052  RH  081%=      5-min Rain = 0
KAM2 051142Z 35015KT 08/05 A3001 RMK A01 T00830052  RH  081%=      5-min Rain = 0
KAM2 051143Z 36019G24KT 08/05 A3001 RMK A01 T00830052  RH  081%=      5-min Rain = 0
KAM2 051144Z 35017G23KT 08/05 A3001 RMK A01 T00830052  RH  081%=      5-min Rain = 0
KAM2 051145Z 36021G29KT 08/05 A3001 RMK A01 T00830052  RH  081%=      5-min Rain = 0
KAM2 051146Z 36026G31KT 08/05 A3001 RMK A01 T00830052  RH  081%=      5-min Rain = 0
KAM2 051147Z 35023G29KT 08/05 A3001 RMK A01 T00830052  RH  081%=      5-min Rain = 0
KAM2 051148Z 35020G26KT 08/05 A3001 RMK A01 T00830053  RH  081%=      5-min Rain = 0
KAM2 051149Z 36023KT 08/05 A3001 RMK A01 T00830053  RH  082%=      5-min Rain = 0
KAM2 051150Z 35019KT 08/05 A3001 RMK A01 T00820053  RH  082%=      5-min Rain = 0
KAM2 051151Z 35022G28KT 08/05 A3001 RMK A01 T00820053  RH  082%=      5-min Rain = 0
KAM2 051152Z 35026KT 08/05 A3001 RMK A01 T00820053  RH  082%=      5-min Rain = 0
KAM2 051153Z 35023KT 08/05 A3001 RMK A01 T00820053  RH  082%=      5-min Rain = 0
KAM2 051154Z 35023G29KT 08/05 A3001 RMK A01 T00820053  RH  082%=      5-min Rain = 0
KAM2 051155Z 35026G34KT 08/05 A3001 RMK A01 T00820053  RH  082%=      5-min Rain = 0
KAM2 051156Z 35022G28KT 08/05 A3001 RMK A01 T00820052  RH  082%=      5-min Rain = 0
KAM2 051157Z 35025G32KT 08/05 A3002 RMK A01 T00820052  RH  082%=      5-min Rain = 0
KAM2 051158Z 35027G32KT 08/05 A3002 RMK A01 T00810052  RH  082%=      5-min Rain = 0
KAM2 051159Z 34028G34KT 08/05 A3001 RMK A01 T00810053  RH  082%=      5-min Rain = 0
KAM2 051200Z 35026KT 08/05 A3002 RMK A01 T00810053  RH  083%=      5-min Rain = 0
KAM2 051201Z 35024KT 08/05 A3002 RMK A01 T00810053  RH  083%=      5-min Rain = 0
KAM2 051202Z 35023KT 08/05 A3002 RMK A01 T00800053  RH  083%=      5-min Rain = 0
KAM2 051203Z 36023G28KT 08/05 A3002 RMK A01 T00800053  RH  083%=      5-min Rain = 0
KAM2 051204Z 36024KT 08/05 A3003 RMK A01 T00800054  RH  083%=      5-min Rain = 0
KAM2 051205Z 35020G26KT 08/05 A3003 RMK A01 T00800054  RH  083%=      5-min Rain = 0
KAM2 051206Z 35020G25KT 08/05 A3003 RMK A01 T00800053  RH  083%=      5-min Rain = 0
KAM2 051207Z 35021KT 08/05 A3002 RMK A01 T00800054  RH  083%=      5-min Rain = 0
KAM2 051208Z 36023KT 08/05 A3003 RMK A01 T00800053  RH  083%=      5-min Rain = 0
KAM2 051209Z 36019G26KT 08/05 A3003 RMK A01 T00800053  RH  083%=      5-min Rain = 0
KAM2 051210Z 00021KT 08/05 A3003 RMK A01 T00800053  RH  083%=      5-min Rain = 0
KAM2 051211Z 00021G26KT 08/05 A3003 RMK A01 T00800053  RH  083%=      5-min Rain = 0
KAM2 051212Z 35026KT 08/05 A3003 RMK A01 T00790053  RH  083%=      5-min Rain = 0
KAM2 051213Z 36022KT 08/05 A3003 RMK A01 T00790053  RH  083%=      5-min Rain = 0
KAM2 051214Z 36022KT 08/05 A3003 RMK A01 T00800053  RH  083%=      5-min Rain = 0
KAM2 051215Z 35021G26KT 08/05 A3003 RMK A01 T00790053  RH  083%=      5-min Rain = 0
KAM2 051216Z 36022G27KT 08/05 A3003 RMK A01 T00790053  RH  084%=      5-min Rain = 0
KAM2 051217Z 36021G27KT 08/05 A3003 RMK A01 T00790053  RH  084%=      5-min Rain = 0
KAM2 051218Z 36018KT 08/05 A3003 RMK A01 T00790053  RH  084%=      5-min Rain = 0
KAM2 051219Z 35019G25KT 08/05 A3003 RMK A01 T00790053  RH  084%=      5-min Rain = 0
KAM2 051220Z 36024G30KT 08/05 A3003 RMK A01 T00780053  RH  084%=      5-min Rain = 0
KAM2 051221Z 36024G29KT 08/05 A3004 RMK A01 T00780053  RH  084%=      5-min Rain = 0
KAM2 051222Z 35025KT 08/05 A3003 RMK A01 T00780053  RH  084%=      5-min Rain = 0
KAM2 051223Z 36023KT 08/05 A3004 RMK A01 T00780053  RH  084%=      5-min Rain = 0
KAM2 051224Z 36021G26KT 08/05 A3004 RMK A01 T00780053  RH  084%=      5-min Rain = 0
KAM2 051225Z 36022KT 08/05 A3004 RMK A01 T00780054  RH  084%=      5-min Rain = 0
KAM2 051226Z 35019G24KT 08/05 A3004 RMK A01 T00780053  RH  084%=      5-min Rain = 0
KAM2 051227Z 35021G27KT 08/05 A3004 RMK A01 T00780054  RH  084%=      5-min Rain = 0
KAM2 051228Z 35022G27KT 08/05 A3004 RMK A01 T00780053  RH  084%=      5-min Rain = 0
KAM2 051229Z 35016G21KT 08/05 A3004 RMK A01 T00780053  RH  084%=      5-min Rain = 0
KAM2 051230Z 36020KT 08/05 A3004 RMK A01 T00780053  RH  084%=      5-min Rain = 0
KAM2 051231Z 00020KT 08/05 A3004 RMK A01 T00780053  RH  084%=      5-min Rain = 0
KAM2 051232Z 01017KT 08/05 A3005 RMK A01 T00780053  RH  084%=      5-min Rain = 0
KAM2 051233Z 01017G23KT 08/05 A3005 RMK A01 T00780052  RH  084%=      5-min Rain = 0
KAM2 051234Z 01023KT 08/05 A3005 RMK A01 T00770051  RH  084%=      5-min Rain = 0
KAM2 051235Z 01021G26KT 08/05 A3005 RMK A01 T00750048  RH  083%=      5-min Rain = 0
KAM2 051236Z 01021G26KT 07/05 A3005 RMK A01 T00740047  RH  083%=      5-min Rain = 0
KAM2 051237Z 01022G27KT 07/05 A3005 RMK A01 T00730047  RH  084%=      5-min Rain = 0
KAM2 051238Z 01022G27KT 07/05 A3005 RMK A01 T00720046  RH  084%=      5-min Rain = 0
KAM2 051239Z 01025KT 07/05 A3005 RMK A01 T00710046  RH  084%=      5-min Rain = 0
KAM2 051240Z 01025KT 07/05 A3005 RMK A01 T00710046  RH  084%=      5-min Rain = 0
KAM2 051241Z 01021G26KT 07/05 A3005 RMK A01 T00700046  RH  084%=      5-min Rain = 0
KAM2 051242Z 01024G30KT 07/05 A3006 RMK A01 T00700045  RH  084%=      5-min Rain = 0
KAM2 051243Z 01027G32KT 07/04 A3006 RMK A01 T00690044  RH  084%=      5-min Rain = 0
KAM2 051244Z 01021KT 07/04 A3006 RMK A01 T00690044  RH  084%=      5-min Rain = 0
KAM2 051245Z 01022KT 07/04 A3006 RMK A01 T00680043  RH  084%=      5-min Rain = 0
KAM2 051246Z 00020KT 07/04 A3006 RMK A01 T00680043  RH  084%=      5-min Rain = 0
KAM2 051247Z 36020KT 07/04 A3006 RMK A01 T00680043  RH  084%=      5-min Rain = 0
KAM2 051248Z 36023G28KT 07/04 A3006 RMK A01 T00680044  RH  084%=      5-min Rain = 0
KAM2 051249Z 01019KT 07/04 A3006 RMK A01 T00680043  RH  084%=      5-min Rain = 0
KAM2 051250Z 00021KT 07/04 A3006 RMK A01 T00670042  RH  084%=      5-min Rain = 0
KAM2 051251Z 36019KT 07/04 A3007 RMK A01 T00680042  RH  084%=      5-min Rain = 0
KAM2 051252Z 01016KT 07/04 A3007 RMK A01 T00670042  RH  084%=      5-min Rain = 0
KAM2 051253Z 01017G22KT 07/04 A3007 RMK A01 T00670041  RH  084%=      5-min Rain = 0
KAM2 051254Z 01019KT 07/04 A3007 RMK A01 T00660040  RH  083%=      5-min Rain = 0
KAM2 051255Z 01018KT 07/04 A3007 RMK A01 T00650038  RH  083%=      5-min Rain = 0
KAM2 051256Z 00019KT 06/04 A3007 RMK A01 T00640037  RH  083%=      5-min Rain = 0
KAM2 051257Z 01021KT 06/04 A3007 RMK A01 T00640037  RH  083%=      5-min Rain = 0
KAM2 051258Z 01019KT 06/04 A3007 RMK A01 T00640036  RH  083%=      5-min Rain = 0
KAM2 051259Z 01017KT 06/04 A3007 RMK A01 T00630036  RH  083%=      5-min Rain = 0
KAM2 051300Z 01014KT 06/04 A3007 RMK A01 T00630035  RH  083%=      5-min Rain = 0
KAM2 051301Z 01017G22KT 06/04 A3007 RMK A01 T00620035  RH  083%=      5-min Rain = 0
KAM2 051302Z 01020G25KT 06/03 A3007 RMK A01 T00620033  RH  082%=      5-min Rain = 0
KAM2 051303Z 00021KT 06/03 A3008 RMK A01 T00610032  RH  082%=      5-min Rain = 0
KAM2 051304Z 00019G24KT 06/03 A3008 RMK A01 T00600031  RH  082%=      5-min Rain = 0
KAM2 051305Z 01021KT 06/03 A3008 RMK A01 T00590030  RH  082%=      5-min Rain = 0
KAM2 051306Z 01023KT 06/03 A3008 RMK A01 T00590030  RH  082%=      5-min Rain = 0
KAM2 051307Z 01022KT 06/03 A3008 RMK A01 T00590030  RH  082%=      5-min Rain = 0
KAM2 051308Z 01021KT 06/03 A3008 RMK A01 T00590031  RH  082%=      5-min Rain = 0
KAM2 051309Z 02020G26KT 06/03 A3008 RMK A01 T00590031  RH  082%=      5-min Rain = 0
KAM2 051310Z 01017G22KT 06/03 A3008 RMK A01 T00590031  RH  082%=      5-min Rain = 0
KAM2 051311Z 01022G27KT 06/03 A3008 RMK A01 T00580031  RH  083%=      5-min Rain = 0
KAM2 051312Z 01020G25KT 06/03 A3008 RMK A01 T00580033  RH  084%=      5-min Rain = 0
KAM2 051313Z 01018G24KT 06/03 A3008 RMK A01 T00580034  RH  084%=      5-min Rain = 0
KAM2 051314Z 02021KT 06/03 A3008 RMK A01 T00570034  RH  085%=      5-min Rain = 0
KAM2 051315Z 01020KT 06/03 A3008 RMK A01 T00570034  RH  085%=      5-min Rain = 0
KAM2 051316Z 01018KT 06/03 A3009 RMK A01 T00560034  RH  086%=      5-min Rain = 0
KAM2 051317Z 01020G26KT 06/03 A3009 RMK A01 T00550034  RH  086%=      5-min Rain = 0
KAM2 051318Z 02017KT 06/03 A3009 RMK A01 T00550033  RH  086%=      5-min Rain = 0
KAM2 051319Z 01017KT 05/03 A3009 RMK A01 T00540033  RH  086%=      5-min Rain = 0
KAM2 051320Z 01021KT 05/03 A3009 RMK A01 T00530032  RH  086%=      5-min Rain = 0
KAM2 051321Z 01018KT 05/03 A3009 RMK A01 T00530032  RH  086%=      5-min Rain = 0
KAM2 051322Z 01017KT 05/03 A301 RMK A01 T00530032  RH  087%=      5-min Rain = 0
KAM2 051323Z 01018KT 05/03 A301 RMK A01 T00520031  RH  087%=      5-min Rain = 0
KAM2 051324Z 02018G23KT 05/03 A301 RMK A01 T00520031  RH  086%=      5-min Rain = 0
KAM2 051325Z 01019KT 05/03 A301 RMK A01 T00510030  RH  086%=      5-min Rain = 0
KAM2 051326Z 01016KT 05/03 A301 RMK A01 T00510030  RH  086%=      5-min Rain = 0
KAM2 051327Z 01018KT 05/03 A301 RMK A01 T00500029  RH  086%=      5-min Rain = 0
KAM2 051328Z 01014G20KT 05/03 A301 RMK A01 T00500029  RH  087%=      5-min Rain = 0
KAM2 051329Z 01013KT 05/03 A301 RMK A01 T00500029  RH  087%=      5-min Rain = 0
KAM2 051330Z 01017KT 05/03 A3011 RMK A01 T00490029  RH  087%=      5-min Rain = 0
KAM2 051331Z 01015G20KT 05/03 A3011 RMK A01 T00490029  RH  087%=      5-min Rain = 0
KAM2 051332Z 01017KT 05/03 A3011 RMK A01 T00490029  RH  087%=      5-min Rain = 0
KAM2 051333Z 01015KT 05/03 A3011 RMK A01 T00490030  RH  088%=      5-min Rain = 0
KAM2 051334Z 02012KT 05/03 A3011 RMK A01 T00490030  RH  088%=      5-min Rain = 0
KAM2 051335Z 01012KT 05/03 A3011 RMK A01 T00490030  RH  088%=      5-min Rain = 0
KAM2 051336Z 01014G19KT 05/03 A3011 RMK A01 T00490031  RH  088%=      5-min Rain = 0
KAM2 051337Z 02015KT 05/03 A3012 RMK A01 T00500031  RH  088%=      5-min Rain = 0
KAM2 051338Z 01013KT 05/03 A3012 RMK A01 T00500031  RH  088%=      5-min Rain = 0
KAM2 051339Z 01012KT 05/03 A3012 RMK A01 T00500032  RH  088%=      5-min Rain = 0
KAM2 051340Z 02012KT 05/03 A3012 RMK A01 T00500032  RH  088%=      5-min Rain = 0
KAM2 051341Z 02012KT 05/03 A3012 RMK A01 T00510033  RH  088%=      5-min Rain = 0
KAM2 051342Z 02010KT 05/03 A3012 RMK A01 T00510034  RH  088%=      5-min Rain = 0
KAM2 051343Z 02013KT 05/03 A3012 RMK A01 T00520034  RH  088%=      5-min Rain = 0
KAM2 051344Z 01010KT 05/04 A3013 RMK A01 T00520035  RH  088%=      5-min Rain = 0
KAM2 051345Z 01011KT 05/04 A3013 RMK A01 T00530035  RH  088%=      5-min Rain = 0
KAM2 051346Z 01011KT 05/04 A3013 RMK A01 T00530035  RH  088%=      5-min Rain = 0
KAM2 051347Z 02012KT 05/04 A3013 RMK A01 T00530036  RH  089%=      5-min Rain = 0
KAM2 051348Z 02011KT 05/04 A3013 RMK A01 T00540037  RH  089%=      5-min Rain = 0
KAM2 051349Z 02009KT 05/04 A3013 RMK A01 T00540037  RH  089%=      5-min Rain = 0
KAM2 051350Z 02011KT 06/04 A3013 RMK A01 T00550038  RH  089%=      5-min Rain = 0
KAM2 051351Z 02014KT 06/04 A3013 RMK A01 T00550039  RH  089%=      5-min Rain = 0
KAM2 051352Z 02013KT 06/04 A3013 RMK A01 T00560040  RH  090%=      5-min Rain = 0
KAM2 051353Z 01011KT 06/04 A3013 RMK A01 T00560041  RH  090%=      5-min Rain = 0
KAM2 051354Z 01009KT 06/04 A3013 RMK A01 T00570041  RH  090%=      5-min Rain = 0
KAM2 051355Z 01013KT 06/04 A3014 RMK A01 T00570042  RH  090%=      5-min Rain = 0
KAM2 051356Z 01012KT 06/04 A3014 RMK A01 T00580043  RH  090%=      5-min Rain = 0
KAM2 051357Z 01009KT 06/04 A3014 RMK A01 T00590044  RH  090%=      5-min Rain = 0
KAM2 051358Z 01012KT 06/04 A3014 RMK A01 T00600044  RH  090%=      5-min Rain = 0
KAM2 051359Z 01013KT 06/05 A3014 RMK A01 T00600046  RH  090%=      5-min Rain = 0
KAM2 051400Z 01014KT 06/05 A3014 RMK A01 T00610047  RH  091%=      5-min Rain = 0
KAM2 051401Z 01013KT 06/05 A3014 RMK A01 T00630049  RH  091%=      5-min Rain = 0
KAM2 051402Z 01012KT 06/05 A3014 RMK A01 T00640050  RH  091%=      5-min Rain = 0
KAM2 051403Z 01011KT 06/05 A3014 RMK A01 T00640050  RH  091%=      5-min Rain = 0
KAM2 051404Z 01013KT 07/05 A3014 RMK A01 T00650051  RH  091%=      5-min Rain = 0
KAM2 051405Z 01015KT 07/05 A3014 RMK A01 T00660052  RH  091%=      5-min Rain = 0
KAM2 051406Z 01012KT 07/05 A3014 RMK A01 T00670053  RH  091%=      5-min Rain = 0
KAM2 051407Z 01014KT 07/05 A3014 RMK A01 T00670053  RH  091%=      5-min Rain = 0
KAM2 051408Z 01015KT 07/05 A3014 RMK A01 T00680054  RH  091%=      5-min Rain = 0
KAM2 051409Z 01012KT 07/05 A3014 RMK A01 T00690054  RH  091%=      5-min Rain = 0
KAM2 051410Z 00013G18KT 07/06 A3014 RMK A01 T00700055  RH  090%=      5-min Rain = 0
KAM2 051411Z 00014KT 07/06 A3014 RMK A01 T00700055  RH  090%=      5-min Rain = 0
KAM2 051412Z 00015KT 07/06 A3015 RMK A01 T00710055  RH  090%=      5-min Rain = 0
KAM2 051413Z 36016KT 07/06 A3014 RMK A01 T00710055  RH  089%=      5-min Rain = 0
KAM2 051414Z 00019KT 07/06 A3015 RMK A01 T00720055  RH  089%=      5-min Rain = 0
KAM2 051415Z 36018KT 07/05 A3015 RMK A01 T00730054  RH  088%=      5-min Rain = 0
KAM2 051416Z 36017KT 07/05 A3015 RMK A01 T00730053  RH  087%=      5-min Rain = 0
KAM2 051417Z 36017KT 07/05 A3015 RMK A01 T00730053  RH  087%=      5-min Rain = 0
KAM2 051418Z 00017KT 07/05 A3015 RMK A01 T00730052  RH  086%=      5-min Rain = 0
KAM2 051419Z 36018KT 07/05 A3015 RMK A01 T00740052  RH  086%=      5-min Rain = 0
KAM2 051420Z 00018KT 07/05 A3015 RMK A01 T00740051  RH  085%=      5-min Rain = 0
KAM2 051421Z 00018G23KT 07/05 A3015 RMK A01 T00740051  RH  085%=      5-min Rain = 0
KAM2 051422Z 00017KT 07/05 A3015 RMK A01 T00740051  RH  085%=      5-min Rain = 0
KAM2 051423Z 00013KT 07/05 A3015 RMK A01 T00740051  RH  086%=      5-min Rain = 0
KAM2 051424Z 36016G22KT 07/05 A3015 RMK A01 T00730052  RH  086%=      5-min Rain = 0
KAM2 051425Z 00021KT 07/05 A3015 RMK A01 T00730051  RH  086%=      5-min Rain = 0
KAM2 051426Z 00018KT 07/05 A3015 RMK A01 T00740050  RH  085%=      5-min Rain = 0
KAM2 051427Z 00020KT 07/05 A3015 RMK A01 T00740050  RH  085%=      5-min Rain = 0
KAM2 051428Z 00018KT 07/05 A3016 RMK A01 T00740050  RH  084%=      5-min Rain = 0
KAM2 051429Z 36017KT 07/05 A3016 RMK A01 T00740049  RH  084%=      5-min Rain = 0
KAM2 051430Z 00016KT 07/05 A3016 RMK A01 T00740049  RH  084%=      5-min Rain = 0
KAM2 051431Z 00018G27KT 08/05 A3016 RMK A01 T00750050  RH  084%=      5-min Rain = 0
KAM2 051432Z 00022KT 08/05 A3016 RMK A01 T00750050  RH  084%=      5-min Rain = 0
KAM2 051433Z 00020G25KT 08/05 A3016 RMK A01 T00750049  RH  083%=      5-min Rain = 0
KAM2 051434Z 36023KT 08/05 A3016 RMK A01 T00760049  RH  083%=      5-min Rain = 0
KAM2 051435Z 36018G23KT 08/05 A3016 RMK A01 T00760050  RH  083%=      5-min Rain = 0
KAM2 051436Z 00018G23KT 08/05 A3016 RMK A01 T00760049  RH  083%=      5-min Rain = 0
KAM2 051437Z 00018KT 08/05 A3016 RMK A01 T00760049  RH  083%=      5-min Rain = 0
KAM2 051438Z 36014KT 08/05 A3016 RMK A01 T00760050  RH  083%=      5-min Rain = 0
KAM2 051439Z 35015KT 08/05 A3017 RMK A01 T00770050  RH  083%=      5-min Rain = 0
KAM2 051440Z 35019G25KT 08/05 A3017 RMK A01 T00770050  RH  083%=      5-min Rain = 0
KAM2 051441Z 35019KT 08/05 A3016 RMK A01 T00770049  RH  083%=      5-min Rain = 0
KAM2 051442Z 35016G21KT 08/05 A3017 RMK A01 T00770050  RH  083%=      5-min Rain = 0
KAM2 051443Z 36019KT 08/05 A3017 RMK A01 T00770050  RH  083%=      5-min Rain = 0
KAM2 051444Z 35017KT 08/05 A3017 RMK A01 T00770049  RH  083%=      5-min Rain = 0
KAM2 051445Z 36018G26KT 08/05 A3017 RMK A01 T00770049  RH  083%=      5-min Rain = 0
KAM2 051446Z 36020G25KT 08/05 A3017 RMK A01 T00770049  RH  082%=      5-min Rain = 0
KAM2 051447Z 35019KT 08/05 A3017 RMK A01 T00770049  RH  082%=      5-min Rain = 0
KAM2 051448Z 35020KT 08/05 A3017 RMK A01 T00770049  RH  082%=      5-min Rain = 0
KAM2 051449Z 36016KT 08/05 A3017 RMK A01 T00770049  RH  082%=      5-min Rain = 0
KAM2 051450Z 36021KT 08/05 A3017 RMK A01 T00770049  RH  083%=      5-min Rain = 0
KAM2 051451Z 35018KT 08/05 A3017 RMK A01 T00770049  RH  082%=      5-min Rain = 0
KAM2 051452Z 35020KT 08/05 A3017 RMK A01 T00770049  RH  083%=      5-min Rain = 0
KAM2 051453Z 35018KT 08/05 A3017 RMK A01 T00770049  RH  083%=      5-min Rain = 0
KAM2 051454Z 35017G22KT 08/05 A3017 RMK A01 T00760048  RH  083%=      5-min Rain = 0
KAM2 051455Z 35019KT 08/05 A3017 RMK A01 T00760048  RH  082%=      5-min Rain = 0
KAM2 051456Z 35017G23KT 08/05 A3018 RMK A01 T00760048  RH  082%=      5-min Rain = 0
KAM2 051457Z 35019G25KT 08/05 A3018 RMK A01 T00760048  RH  082%=      5-min Rain = 0
KAM2 051458Z 35020KT 08/05 A3018 RMK A01 T00770047  RH  082%=      5-min Rain = 0
KAM2 051459Z 35019G24KT 08/05 A3018 RMK A01 T00770047  RH  082%=      5-min Rain = 0
KAM2 051500Z 35016G22KT 08/05 A3018 RMK A01 T00770047  RH  082%=      5-min Rain = 0
KAM2 051501Z 36022G28KT 08/05 A3018 RMK A01 T00770047  RH  081%=      5-min Rain = 0
KAM2 051502Z 36019G24KT 08/05 A3018 RMK A01 T00760046  RH  081%=      5-min Rain = 0
KAM2 051503Z 35017KT 08/05 A3018 RMK A01 T00760046  RH  081%=      5-min Rain = 0
KAM2 051504Z 35020G26KT 08/05 A3019 RMK A01 T00760046  RH  081%=      5-min Rain = 0
KAM2 051505Z 35019KT 08/05 A3019 RMK A01 T00760046  RH  081%=      5-min Rain = 0
KAM2 051506Z 35020KT 08/05 A3019 RMK A01 T00760046  RH  081%=      5-min Rain = 0
KAM2 051507Z 36021KT 08/05 A3019 RMK A01 T00760046  RH  081%=      5-min Rain = 0
KAM2 051508Z 36021KT 08/05 A3019 RMK A01 T00760046  RH  081%=      5-min Rain = 0
KAM2 051509Z 35017KT 08/05 A3019 RMK A01 T00760046  RH  081%=      5-min Rain = 0
KAM2 051510Z 35016KT 08/05 A3019 RMK A01 T00760046  RH  081%=      5-min Rain = 0
KAM2 051511Z 35016KT 08/05 A3019 RMK A01 T00760046  RH  081%=      5-min Rain = 0
KAM2 051512Z 35018G23KT 08/05 A3019 RMK A01 T00760046  RH  081%=      5-min Rain = 0
KAM2 051513Z 34016KT 08/05 A3019 RMK A01 T00760046  RH  081%=      5-min Rain = 0
KAM2 051514Z 35018KT 08/05 A3019 RMK A01 T00760046  RH  081%=      5-min Rain = 0
KAM2 051515Z 36019KT 08/05 A3019 RMK A01 T00750045  RH  081%=      5-min Rain = 0
KAM2 051516Z 35017G22KT 08/05 A302 RMK A01 T00750045  RH  081%=      5-min Rain = 0
KAM2 051517Z 34016KT 08/05 A3019 RMK A01 T00750046  RH  082%=      5-min Rain = 0
KAM2 051518Z 35013KT 08/05 A302 RMK A01 T00750046  RH  082%=      5-min Rain = 0
KAM2 051519Z 34016KT 08/05 A302 RMK A01 T00750046  RH  082%=      5-min Rain = 0
KAM2 051520Z 35016G21KT 08/05 A302 RMK A01 T00750046  RH  082%=      5-min Rain = 0
KAM2 051521Z 35018G23KT 08/05 A302 RMK A01 T00750046  RH  082%=      5-min Rain = 0
KAM2 051522Z 35017KT 08/05 A302 RMK A01 T00750046  RH  082%=      5-min Rain = 0
KAM2 051523Z 35019KT 08/05 A302 RMK A01 T00750047  RH  083%=      5-min Rain = 0
KAM2 051524Z 36018KT 07/05 A302 RMK A01 T00740048  RH  084%=      5-min Rain = 0
KAM2 051525Z 35022KT 07/05 A302 RMK A01 T00730049  RH  085%=      5-min Rain = 0
KAM2 051526Z 00021G26KT 07/05 A302 RMK A01 T00720050  RH  086%=      5-min Rain = 0
KAM2 051527Z 36019KT 07/05 A302 RMK A01 T00710052  RH  087%=      5-min Rain = 0
KAM2 051528Z 36018KT 07/05 A302 RMK A01 T00710052  RH  088%=      5-min Rain = 0
KAM2 051529Z 00020KT 07/05 A302 RMK A01 T00710052  RH  088%=      5-min Rain = 0
KAM2 051530Z 36018KT 07/05 A302 RMK A01 T00710053  RH  089%=      5-min Rain = 0
KAM2 051531Z 35017KT 07/05 A302 RMK A01 T00710054  RH  089%=      5-min Rain = 0
KAM2 051532Z 35019G24KT 07/05 A302 RMK A01 T00710054  RH  089%=      5-min Rain = 0
KAM2 051533Z 36019G25KT 07/06 A302 RMK A01 T00710055  RH  090%=      5-min Rain = 0
KAM2 051534Z 36017KT 07/06 A302 RMK A01 T00700056  RH  091%=      5-min Rain = 0
KAM2 051535Z 35018G23KT 07/06 A302 RMK A01 T00700057  RH  092%=      5-min Rain = 0
KAM2 051536Z 36019KT 07/06 A302 RMK A01 T00690057  RH  092%=      5-min Rain = 0
KAM2 051537Z 35019KT 07/06 A3021 RMK A01 T00680057  RH  093%=      5-min Rain = 0
KAM2 051538Z 36016G22KT 07/06 A3021 RMK A01 T00680058  RH  093%=      5-min Rain = 0
KAM2 051539Z 36020KT 07/06 A3021 RMK A01 T00680058  RH  094%=      5-min Rain = 0
KAM2 051540Z 36016KT 07/06 A3021 RMK A01 T00680058  RH  094%=      5-min Rain = 0
KAM2 051541Z 36017KT 07/06 A3021 RMK A01 T00680058  RH  094%=      5-min Rain = 0
KAM2 051542Z 35018KT 07/06 A3021 RMK A01 T00680059  RH  094%=      5-min Rain = 0
KAM2 051543Z 35019KT 07/06 A3021 RMK A01 T00690059  RH  094%=      5-min Rain = 0
KAM2 051544Z 36017G22KT 07/06 A3021 RMK A01 T00700060  RH  093%=      5-min Rain = 0
KAM2 051545Z 36018G23KT 07/06 A3021 RMK A01 T00700060  RH  093%=      5-min Rain = 0
KAM2 051546Z 36019G24KT 07/06 A3021 RMK A01 T00700059  RH  093%=      5-min Rain = 0
KAM2 051547Z 36021KT 07/06 A3021 RMK A01 T00710059  RH  092%=      5-min Rain = 0
KAM2 051548Z 35017KT 07/06 A3021 RMK A01 T00700058  RH  092%=      5-min Rain = 0
KAM2 051549Z 35015KT 07/06 A3021 RMK A01 T00700058  RH  092%=      5-min Rain = 0
KAM2 051550Z 35017KT 07/06 A3021 RMK A01 T00700059  RH  092%=      5-min Rain = 0
KAM2 051551Z 35017KT 07/06 A3021 RMK A01 T00700058  RH  092%=      5-min Rain = 0
KAM2 051552Z 36017KT 07/06 A3021 RMK A01 T00700058  RH  092%=      5-min Rain = 0
KAM2 051553Z 36014KT 07/06 A3021 RMK A01 T00700058  RH  092%=      5-min Rain = 0
KAM2 051554Z 36016KT 07/06 A3021 RMK A01 T00700058  RH  092%=      5-min Rain = 0
KAM2 051555Z 36015KT 07/06 A3022 RMK A01 T00700058  RH  092%=      5-min Rain = 0
KAM2 051556Z 00017KT 07/06 A3022 RMK A01 T00700058  RH  092%=      5-min Rain = 0
KAM2 051557Z 36017G22KT 07/06 A3021 RMK A01 T00700058  RH  092%=      5-min Rain = 0
KAM2 051558Z 36018KT 07/06 A3022 RMK A01 T00710058  RH  091%=      5-min Rain = 0
KAM2 051559Z 36019KT 07/06 A3022 RMK A01 T00710057  RH  091%=      5-min Rain = 0
KAM2 051600Z 36018KT 07/06 A3022 RMK A01 T00710056  RH  091%=      5-min Rain = 0
KAM2 051601Z 36016G21KT 07/06 A3022 RMK A01 T00710057  RH  090%=      5-min Rain = 0
KAM2 051602Z 00013KT 07/06 A3022 RMK A01 T00710057  RH  091%=      5-min Rain = 0
KAM2 051603Z 36014KT 07/06 A3022 RMK A01 T00710058  RH  091%=      5-min Rain = 0
KAM2 051604Z 00015KT 07/06 A3022 RMK A01 T00710057  RH  091%=      5-min Rain = 0
KAM2 051605Z 00015KT 07/06 A3022 RMK A01 T00720057  RH  091%=      5-min Rain = 0
KAM2 051606Z 00015KT 07/06 A3022 RMK A01 T00720057  RH  090%=      5-min Rain = 0
KAM2 051607Z 36015KT 07/06 A3022 RMK A01 T00720057  RH  090%=      5-min Rain = 0
KAM2 051608Z 01019KT 07/06 A3022 RMK A01 T00720057  RH  090%=      5-min Rain = 0
KAM2 051609Z 36018KT 07/06 A3022 RMK A01 T00720056  RH  089%=      5-min Rain = 0
KAM2 051610Z 00018KT 07/06 A3022 RMK A01 T00720056  RH  089%=      5-min Rain = 0
KAM2 051611Z 01018KT 07/06 A3023 RMK A01 T00730055  RH  089%=      5-min Rain = 0
KAM2 051612Z 36015G21KT 07/06 A3023 RMK A01 T00720055  RH  089%=      5-min Rain = 0
KAM2 051613Z 00018KT 07/06 A3023 RMK A01 T00720055  RH  089%=      5-min Rain = 0
KAM2 051614Z 01016KT 07/06 A3023 RMK A01 T00720055  RH  089%=      5-min Rain = 0
KAM2 051615Z 01015G21KT 07/06 A3023 RMK A01 T00730055  RH  089%=      5-min Rain = 0
KAM2 051616Z 02019KT 07/06 A3023 RMK A01 T00720055  RH  089%=      5-min Rain = 0
KAM2 051617Z 01017KT 07/06 A3023 RMK A01 T00730055  RH  089%=      5-min Rain = 0
KAM2 051618Z 01019KT 07/06 A3023 RMK A01 T00720055  RH  089%=      5-min Rain = 0
KAM2 051619Z 01019KT 07/06 A3023 RMK A01 T00720055  RH  089%=      5-min Rain = 0
KAM2 051620Z 01018KT 07/06 A3023 RMK A01 T00720056  RH  089%=      5-min Rain = 0
KAM2 051621Z 02014KT 07/06 A3023 RMK A01 T00720056  RH  089%=      5-min Rain = 0
KAM2 051622Z 02013KT 07/06 A3023 RMK A01 T00730056  RH  089%=      5-min Rain = 0
KAM2 051623Z 01015KT 07/06 A3023 RMK A01 T00730057  RH  089%=      5-min Rain = 0
KAM2 051624Z 02017KT 07/06 A3023 RMK A01 T00740057  RH  089%=      5-min Rain = 0
KAM2 051625Z 02015KT 08/06 A3023 RMK A01 T00760059  RH  089%=      5-min Rain = 0
KAM2 051626Z 02014KT 08/06 A3023 RMK A01 T00780060  RH  088%=      5-min Rain = 0
KAM2 051627Z 01015KT 08/06 A3023 RMK A01 T00800061  RH  088%=      5-min Rain = 0
KAM2 051628Z 01015KT 08/06 A3023 RMK A01 T00810060  RH  086%=      5-min Rain = 0
KAM2 051629Z 02017G23KT 08/06 A3023 RMK A01 T00820056  RH  084%=      5-min Rain = 0
KAM2 051630Z 02019KT 08/05 A3023 RMK A01 T00820052  RH  081%=      5-min Rain = 0
KAM2 051631Z 02017KT 08/05 A3023 RMK A01 T00820051  RH  081%=      5-min Rain = 0
KAM2 051632Z 02017KT 08/05 A3023 RMK A01 T00830051  RH  080%=      5-min Rain = 0
KAM2 051633Z 02017KT 09/05 A3023 RMK A01 T00850052  RH  080%=      5-min Rain = 0
KAM2 051634Z 01019KT 09/05 A3023 RMK A01 T00870052  RH  079%=      5-min Rain = 0
KAM2 051635Z 02022KT 09/05 A3023 RMK A01 T00870049  RH  077%=      5-min Rain = 0
KAM2 051636Z 02016KT 09/05 A3023 RMK A01 T00870049  RH  077%=      5-min Rain = 0
KAM2 051637Z 02015KT 09/05 A3023 RMK A01 T00880051  RH  077%=      5-min Rain = 0
KAM2 051638Z 03016G21KT 09/05 A3023 RMK A01 T00900052  RH  077%=      5-min Rain = 0
KAM2 051639Z 02014KT 09/05 A3023 RMK A01 T00900050  RH  076%=      5-min Rain = 0
KAM2 051640Z 01018KT 09/05 A3023 RMK A01 T00890049  RH  076%=      5-min Rain = 0
KAM2 051641Z 01020KT 09/05 A3023 RMK A01 T00880047  RH  076%=      5-min Rain = 0
KAM2 051642Z 02016G21KT 09/05 A3023 RMK A01 T00860045  RH  075%=      5-min Rain = 0
KAM2 051643Z 01017KT 09/05 A3023 RMK A01 T00860046  RH  076%=      5-min Rain = 0
KAM2 051644Z 01020KT 09/04 A3023 RMK A01 T00860044  RH  075%=      5-min Rain = 0
KAM2 051645Z 02017KT 09/04 A3023 RMK A01 T00850043  RH  075%=      5-min Rain = 0
KAM2 051646Z 01018KT 09/04 A3023 RMK A01 T00850044  RH  075%=      5-min Rain = 0
KAM2 051647Z 01020G25KT 09/04 A3023 RMK A01 T00850044  RH  075%=      5-min Rain = 0
KAM2 051648Z 01021KT 09/04 A3023 RMK A01 T00850043  RH  075%=      5-min Rain = 0
KAM2 051649Z 02019KT 08/04 A3024 RMK A01 T00840043  RH  075%=      5-min Rain = 0
KAM2 051650Z 02018KT 08/04 A3024 RMK A01 T00840043  RH  075%=      5-min Rain = 0
KAM2 051651Z 02017G22KT 08/04 A3024 RMK A01 T00840043  RH  075%=      5-min Rain = 0
KAM2 051652Z 02019KT 08/04 A3024 RMK A01 T00840043  RH  075%=      5-min Rain = 0
KAM2 051653Z 01017G22KT 08/04 A3024 RMK A01 T00840043  RH  075%=      5-min Rain = 0
KAM2 051654Z 01018KT 08/04 A3024 RMK A01 T00840043  RH  075%=      5-min Rain = 0
KAM2 051655Z 02019KT 08/04 A3024 RMK A01 T00840042  RH  075%=      5-min Rain = 0
KAM2 051656Z 01017KT 09/04 A3024 RMK A01 T00850042  RH  074%=      5-min Rain = 0
KAM2 051657Z 01018KT 09/04 A3024 RMK A01 T00860043  RH  074%=      5-min Rain = 0
KAM2 051658Z 01017KT 09/04 A3024 RMK A01 T00860043  RH  074%=      5-min Rain = 0
KAM2 051659Z 02018KT 09/04 A3024 RMK A01 T00870043  RH  074%=      5-min Rain = 0
KAM2 051700Z 02018KT 09/04 A3024 RMK A01 T00870043  RH  074%=      5-min Rain = 0
KAM2 051701Z 02020G25KT 09/04 A3024 RMK A01 T00870042  RH  073%=      5-min Rain = 0
KAM2 051702Z 02019G24KT 09/04 A3024 RMK A01 T00870039  RH  072%=      5-min Rain = 0
KAM2 051703Z 02019KT 09/04 A3024 RMK A01 T00860039  RH  072%=      5-min Rain = 0
KAM2 051704Z 01020KT 09/04 A3024 RMK A01 T00860039  RH  072%=      5-min Rain = 0
KAM2 051705Z 01019G26KT 09/04 A3024 RMK A01 T00860039  RH  072%=      5-min Rain = 0
KAM2 051706Z 01021KT 09/04 A3024 RMK A01 T00870039  RH  072%=      5-min Rain = 0
KAM2 051707Z 01020KT 09/04 A3025 RMK A01 T00860038  RH  072%=      5-min Rain = 0
KAM2 051708Z 02017G22KT 09/04 A3025 RMK A01 T00850038  RH  072%=      5-min Rain = 0
KAM2 051709Z 02018KT 09/04 A3025 RMK A01 T00850039  RH  072%=      5-min Rain = 0
KAM2 051710Z 01022KT 09/04 A3025 RMK A01 T00850039  RH  073%=      5-min Rain = 0
KAM2 051711Z 02024KT 09/04 A3025 RMK A01 T00850038  RH  073%=      5-min Rain = 0
KAM2 051712Z 02019G24KT 08/04 A3025 RMK A01 T00840038  RH  073%=      5-min Rain = 0
KAM2 051713Z 02023KT 08/04 A3025 RMK A01 T00840039  RH  073%=      5-min Rain = 0
KAM2 051714Z 01020KT 08/04 A3025 RMK A01 T00840039  RH  073%=      5-min Rain = 0
KAM2 051715Z 02018KT 09/04 A3025 RMK A01 T00850040  RH  074%=      5-min Rain = 0
KAM2 051716Z 02017KT 09/04 A3025 RMK A01 T00850040  RH  073%=      5-min Rain = 0
KAM2 051717Z 02014G20KT 09/04 A3025 RMK A01 T00850040  RH  073%=      5-min Rain = 0
KAM2 051718Z 01015KT 09/04 A3025 RMK A01 T00860041  RH  073%=      5-min Rain = 0
KAM2 051719Z 02014KT 09/04 A3025 RMK A01 T00870041  RH  073%=      5-min Rain = 0
KAM2 051720Z 03015G20KT 09/04 A3025 RMK A01 T00870041  RH  073%=      5-min Rain = 0
KAM2 051721Z 02021KT 09/04 A3025 RMK A01 T00860041  RH  073%=      5-min Rain = 0
KAM2 051722Z 02022KT 09/04 A3025 RMK A01 T00850040  RH  073%=      5-min Rain = 0
KAM2 051723Z 02020KT 09/04 A3025 RMK A01 T00850040  RH  073%=      5-min Rain = 0
KAM2 051724Z 02018KT 09/04 A3025 RMK A01 T00850040  RH  074%=      5-min Rain = 0
KAM2 051725Z 02016KT 08/04 A3025 RMK A01 T00840040  RH  074%=      5-min Rain = 0
KAM2 051726Z 02019KT 08/04 A3025 RMK A01 T00840040  RH  074%=      5-min Rain = 0
KAM2 051727Z 01016G21KT 08/04 A3025 RMK A01 T00840040  RH  074%=      5-min Rain = 0
KAM2 051728Z 01017KT 08/04 A3025 RMK A01 T00840041  RH  074%=      5-min Rain = 0
KAM2 051729Z 02015KT 08/04 A3025 RMK A01 T00840041  RH  074%=      5-min Rain = 0
KAM2 051730Z 02014KT 09/04 A3025 RMK A01 T00850041  RH  074%=      5-min Rain = 0
KAM2 051731Z 02015KT 09/04 A3025 RMK A01 T00850041  RH  074%=      5-min Rain = 0
KAM2 051732Z 02015KT 09/04 A3025 RMK A01 T00850042  RH  074%=      5-min Rain = 0
KAM2 051733Z 02015KT 09/04 A3025 RMK A01 T00850041  RH  074%=      5-min Rain = 0
KAM2 051734Z 02017KT 09/04 A3025 RMK A01 T00850041  RH  074%=      5-min Rain = 0
KAM2 051735Z 01015G21KT 09/04 A3025 RMK A01 T00850042  RH  074%=      5-min Rain = 0
KAM2 051736Z 01020KT 09/04 A3026 RMK A01 T00850042  RH  074%=      5-min Rain = 0
KAM2 051737Z 01021KT 09/04 A3026 RMK A01 T00850042  RH  074%=      5-min Rain = 0
KAM2 051738Z 02018KT 08/04 A3026 RMK A01 T00840041  RH  075%=      5-min Rain = 0
KAM2 051739Z 02017KT 08/04 A3026 RMK A01 T00840043  RH  075%=      5-min Rain = 0
KAM2 051740Z 01017KT 08/04 A3026 RMK A01 T00840042  RH  075%=      5-min Rain = 0
KAM2 051741Z 01017KT 08/04 A3026 RMK A01 T00840043  RH  075%=      5-min Rain = 0
KAM2 051742Z 01016KT 09/04 A3026 RMK A01 T00850043  RH  075%=      5-min Rain = 0
KAM2 051743Z 01015KT 08/04 A3026 RMK A01 T00840043  RH  075%=      5-min Rain = 0
KAM2 051744Z 00015KT 08/04 A3026 RMK A01 T00840043  RH  075%=      5-min Rain = 0
KAM2 051745Z 02017KT 09/04 A3026 RMK A01 T00850044  RH  075%=      5-min Rain = 0
KAM2 051746Z 01015KT 08/04 A3026 RMK A01 T00840043  RH  075%=      5-min Rain = 0
KAM2 051747Z 00017KT 08/04 A3026 RMK A01 T00840044  RH  076%=      5-min Rain = 0
KAM2 051748Z 01021KT 08/04 A3026 RMK A01 T00840044  RH  076%=      5-min Rain = 0
KAM2 051749Z 00018KT 08/04 A3026 RMK A01 T00830044  RH  076%=      5-min Rain = 0
KAM2 051750Z 00017KT 08/04 A3026 RMK A01 T00820044  RH  077%=      5-min Rain = 0
KAM2 051751Z 02018KT 08/04 A3026 RMK A01 T00820044  RH  077%=      5-min Rain = 0
KAM2 051752Z 01011KT 08/05 A3026 RMK A01 T00820045  RH  078%=      5-min Rain = 0
KAM2 051753Z 02016KT 08/05 A3026 RMK A01 T00820045  RH  078%=      5-min Rain = 0
KAM2 051754Z 00014KT 08/05 A3026 RMK A01 T00820046  RH  078%=      5-min Rain = 0
KAM2 051755Z 01015KT 08/05 A3026 RMK A01 T00820047  RH  079%=      5-min Rain = 0
KAM2 051756Z 01016KT 08/05 A3026 RMK A01 T00810048  RH  080%=      5-min Rain = 0
KAM2 051757Z 01018KT 08/05 A3027 RMK A01 T00810049  RH  081%=      5-min Rain = 0
KAM2 051758Z 01018KT 08/05 A3027 RMK A01 T00790049  RH  081%=      5-min Rain = 0
KAM2 051759Z 01014KT 08/05 A3027 RMK A01 T00780050  RH  082%=      5-min Rain = 0
KAM2 051800Z 01013KT 08/05 A3027 RMK A01 T00780051  RH  084%=      5-min Rain = 0
KAM2 051801Z 00015KT 08/05 A3027 RMK A01 T00770053  RH  085%=      5-min Rain = 0
KAM2 051802Z 01018KT 08/05 A3027 RMK A01 T00760054  RH  086%=      5-min Rain = 0
KAM2 051803Z 00015KT 08/06 A3027 RMK A01 T00750055  RH  087%=      5-min Rain = 0
KAM2 051804Z 01017KT 08/06 A3027 RMK A01 T00750055  RH  087%=      5-min Rain = 0
KAM2 051805Z 01013KT 07/06 A3027 RMK A01 T00740056  RH  088%=      5-min Rain = 0
KAM2 051806Z 01013KT 07/06 A3027 RMK A01 T00740057  RH  089%=      5-min Rain = 0
KAM2 051807Z 01017KT 07/06 A3027 RMK A01 T00740057  RH  090%=      5-min Rain = 0
KAM2 051808Z 01015KT 07/06 A3027 RMK A01 T00730058  RH  090%=      5-min Rain = 0
KAM2 051809Z 00014G19KT 07/06 A3027 RMK A01 T00720058  RH  091%=      5-min Rain = 0
KAM2 051810Z 00015KT 07/06 A3027 RMK A01 T00730059  RH  091%=      5-min Rain = 0
KAM2 051811Z 01014KT 07/06 A3027 RMK A01 T00720059  RH  091%=      5-min Rain = 0
KAM2 051812Z 01017KT 07/06 A3027 RMK A01 T00720058  RH  091%=      5-min Rain = 0
KAM2 051813Z 02019KT 07/06 A3027 RMK A01 T00730057  RH  090%=      5-min Rain = 0
KAM2 051814Z 02017KT 07/06 A3027 RMK A01 T00730057  RH  089%=      5-min Rain = 0
KAM2 051815Z 01016KT 07/06 A3027 RMK A01 T00730058  RH  090%=      5-min Rain = 0
KAM2 051816Z 02017KT 07/06 A3027 RMK A01 T00730058  RH  091%=      5-min Rain = 0
KAM2 051817Z 01013KT 07/06 A3027 RMK A01 T00720058  RH  091%=      5-min Rain = 0
KAM2 051818Z 00017KT 07/06 A3027 RMK A01 T00720058  RH  091%=      5-min Rain = 0
KAM2 051819Z 01015G20KT 07/06 A3027 RMK A01 T00730058  RH  090%=      5-min Rain = 0
KAM2 051820Z 01021KT 07/06 A3027 RMK A01 T00740058  RH  090%=      5-min Rain = 0
KAM2 051821Z 02017KT 07/06 A3027 RMK A01 T00730056  RH  088%=      5-min Rain = 0
KAM2 051822Z 01014KT 07/06 A3027 RMK A01 T00740056  RH  088%=      5-min Rain = 0
KAM2 051823Z 02018KT 07/06 A3027 RMK A01 T00740056  RH  089%=      5-min Rain = 0
KAM2 051824Z 02015G20KT 07/06 A3027 RMK A01 T00740055  RH  088%=      5-min Rain = 0
KAM2 051825Z 01015KT 07/06 A3027 RMK A01 T00740056  RH  088%=      5-min Rain = 0
KAM2 051826Z 01014G19KT 07/06 A3027 RMK A01 T00740056  RH  088%=      5-min Rain = 0
KAM2 051827Z 01013KT 07/06 A3027 RMK A01 T00740056  RH  088%=      5-min Rain = 0
KAM2 051828Z 01014KT 07/06 A3027 RMK A01 T00740056  RH  088%=      5-min Rain = 0
KAM2 051829Z 00013KT 07/06 A3027 RMK A01 T00740056  RH  088%=      5-min Rain = 0
KAM2 051830Z 01015KT 08/06 A3027 RMK A01 T00750056  RH  088%=      5-min Rain = 0
KAM2 051831Z 01014KT 08/06 A3027 RMK A01 T00750056  RH  088%=      5-min Rain = 0
KAM2 051832Z 00013KT 08/06 A3027 RMK A01 T00760057  RH  088%=      5-min Rain = 0
KAM2 051833Z 00011KT 08/06 A3027 RMK A01 T00770057  RH  087%=      5-min Rain = 0
KAM2 051834Z 35013KT 08/06 A3027 RMK A01 T00770057  RH  087%=      5-min Rain = 0
KAM2 051835Z 00013KT 08/06 A3027 RMK A01 T00790057  RH  086%=      5-min Rain = 0
KAM2 051836Z 00014KT 08/06 A3027 RMK A01 T00790056  RH  086%=      5-min Rain = 0
KAM2 051837Z 00012KT 08/06 A3027 RMK A01 T00790056  RH  085%=      5-min Rain = 0
KAM2 051838Z 01013KT 08/06 A3027 RMK A01 T00790055  RH  085%=      5-min Rain = 0
KAM2 051839Z 01012KT 08/05 A3027 RMK A01 T00800054  RH  084%=      5-min Rain = 0
KAM2 051840Z 00012G17KT 08/06 A3027 RMK A01 T00800055  RH  084%=      5-min Rain = 0
KAM2 051841Z 00013KT 08/06 A3027 RMK A01 T00810055  RH  084%=      5-min Rain = 0
KAM2 051842Z 00013KT 08/05 A3027 RMK A01 T00810054  RH  083%=      5-min Rain = 0
KAM2 051843Z 01012KT 08/06 A3027 RMK A01 T00810055  RH  084%=      5-min Rain = 0
KAM2 051844Z 36010KT 08/06 A3027 RMK A01 T00830057  RH  084%=      5-min Rain = 0
KAM2 051845Z 00010KT 08/06 A3027 RMK A01 T00840058  RH  083%=      5-min Rain = 0
KAM2 051846Z 36008KT 09/06 A3027 RMK A01 T00850058  RH  083%=      5-min Rain = 0
KAM2 051847Z 35011G16KT 09/06 A3027 RMK A01 T00860058  RH  082%=      5-min Rain = 0
KAM2 051848Z 35013KT 09/06 A3027 RMK A01 T00870056  RH  081%=      5-min Rain = 0
KAM2 051849Z 01010G15KT 09/06 A3027 RMK A01 T00890057  RH  080%=      5-min Rain = 0
KAM2 051850Z 01012KT 09/06 A3027 RMK A01 T00910057  RH  080%=      5-min Rain = 0
KAM2 051851Z 35009KT 09/06 A3027 RMK A01 T00920058  RH  079%=      5-min Rain = 0
KAM2 051852Z 35009KT 09/06 A3027 RMK A01 T00920058  RH  079%=      5-min Rain = 0
KAM2 051853Z 34008KT 09/06 A3027 RMK A01 T00930059  RH  079%=      5-min Rain = 0
KAM2 051854Z 35013KT 09/06 A3027 RMK A01 T00940058  RH  078%=      5-min Rain = 0
KAM2 051855Z 01013KT 09/05 A3027 RMK A01 T00920050  RH  075%=      5-min Rain = 0
KAM2 051856Z 36014KT 09/05 A3027 RMK A01 T00900049  RH  076%=      5-min Rain = 0
KAM2 051857Z 36013KT 09/05 A3027 RMK A01 T00900050  RH  076%=      5-min Rain = 0
KAM2 051858Z 01012KT 09/05 A3027 RMK A01 T00900051  RH  077%=      5-min Rain = 0
KAM2 051859Z 01013KT 09/05 A3027 RMK A01 T00910050  RH  075%=      5-min Rain = 0
KAM2 051900Z 00012KT 09/05 A3027 RMK A01 T00910049  RH  075%=      5-min Rain = 0
KAM2 051901Z 01014KT 09/05 A3027 RMK A01 T00920049  RH  075%=      5-min Rain = 0
KAM2 051902Z 02011KT 09/05 A3027 RMK A01 T00920049  RH  074%=      5-min Rain = 0
KAM2 051903Z 01010KT 09/05 A3027 RMK A01 T00920049  RH  074%=      5-min Rain = 0
KAM2 051904Z 02011G17KT 09/05 A3027 RMK A01 T00930050  RH  074%=      5-min Rain = 0
KAM2 051905Z 02016KT 09/05 A3026 RMK A01 T00940047  RH  072%=      5-min Rain = 0
KAM2 051906Z 01013KT 10/05 A3026 RMK A01 T00960047  RH  071%=      5-min Rain = 0
KAM2 051907Z 01012KT 10/05 A3026 RMK A01 T00970048  RH  072%=      5-min Rain = 0
KAM2 051908Z 02015KT 10/05 A3026 RMK A01 T00980046  RH  070%=      5-min Rain = 0
KAM2 051909Z 02013KT 10/05 A3026 RMK A01 T00980045  RH  069%=      5-min Rain = 0
KAM2 051910Z 03017G22KT 10/04 A3026 RMK A01 T00990044  RH  069%=      5-min Rain = 0
KAM2 051911Z 02017G22KT 10/04 A3026 RMK A01 T00990042  RH  068%=      5-min Rain = 0
KAM2 051912Z 01015KT 10/04 A3026 RMK A01 T00990043  RH  068%=      5-min Rain = 0
KAM2 051913Z 02016KT 10/04 A3026 RMK A01 T01000043  RH  068%=      5-min Rain = 0
KAM2 051914Z 01017KT 10/04 A3026 RMK A01 T01010043  RH  067%=      5-min Rain = 0
KAM2 051915Z 01017G22KT 10/04 A3026 RMK A01 T01010042  RH  067%=      5-min Rain = 0
KAM2 051916Z 01015KT 10/04 A3026 RMK A01 T01010043  RH  067%=      5-min Rain = 0
KAM2 051917Z 02018KT 10/04 A3026 RMK A01 T01020042  RH  067%=      5-min Rain = 0
KAM2 051918Z 02013KT 10/04 A3026 RMK A01 T01020043  RH  066%=      5-min Rain = 0
KAM2 051919Z 02016G21KT 10/04 A3026 RMK A01 T01030044  RH  067%=      5-min Rain = 0
KAM2 051920Z 01017KT 10/04 A3026 RMK A01 T01040043  RH  066%=      5-min Rain = 0
KAM2 051921Z 02015KT 10/04 A3026 RMK A01 T01040042  RH  066%=      5-min Rain = 0
KAM2 051922Z 02015KT 10/04 A3026 RMK A01 T01040043  RH  066%=      5-min Rain = 0
KAM2 051923Z 02014KT 10/04 A3026 RMK A01 T01040043  RH  066%=      5-min Rain = 0
KAM2 051924Z 02015KT 10/04 A3026 RMK A01 T01040042  RH  066%=      5-min Rain = 0
KAM2 051925Z 01016KT 10/04 A3026 RMK A01 T01040043  RH  066%=      5-min Rain = 0
KAM2 051926Z 01016G22KT 10/04 A3026 RMK A01 T01040043  RH  066%=      5-min Rain = 0
KAM2 051927Z 01020KT 11/04 A3026 RMK A01 T01050043  RH  066%=      5-min Rain = 0
KAM2 051928Z 00019KT 11/04 A3026 RMK A01 T01050043  RH  066%=      5-min Rain = 0
KAM2 051929Z 00018KT 10/04 A3026 RMK A01 T01040043  RH  066%=      5-min Rain = 0
KAM2 051930Z 01019KT 11/04 A3026 RMK A01 T01060044  RH  065%=      5-min Rain = 0
KAM2 051931Z 00019KT 11/04 A3026 RMK A01 T01080042  RH  064%=      5-min Rain = 0
KAM2 051932Z 00015G20KT 11/04 A3026 RMK A01 T01090041  RH  063%=      5-min Rain = 0
KAM2 051933Z 01017KT 11/04 A3026 RMK A01 T01110044  RH  063%=      5-min Rain = 0
KAM2 051934Z 01019KT 11/04 A3026 RMK A01 T01130042  RH  062%=      5-min Rain = 0
KAM2 051935Z 00020KT 11/04 A3026 RMK A01 T01130040  RH  061%=      5-min Rain = 0
KAM2 051936Z 01018G24KT 11/04 A3026 RMK A01 T01140040  RH  061%=      5-min Rain = 0
KAM2 051937Z 02019KT 12/04 A3026 RMK A01 T01150039  RH  060%=      5-min Rain = 0
KAM2 051938Z 02018KT 12/04 A3026 RMK A01 T01150040  RH  060%=      5-min Rain = 0
KAM2 051939Z 01017KT 12/04 A3026 RMK A01 T01150039  RH  060%=      5-min Rain = 0
KAM2 051940Z 02019KT 12/04 A3026 RMK A01 T01150040  RH  060%=      5-min Rain = 0
KAM2 051941Z 02020KT 11/04 A3026 RMK A01 T01130038  RH  060%=      5-min Rain = 0
KAM2 051942Z 02016G22KT 11/04 A3025 RMK A01 T01100037  RH  060%=      5-min Rain = 0
KAM2 051943Z 01019KT 11/04 A3025 RMK A01 T01100038  RH  061%=      5-min Rain = 0
KAM2 051944Z 02021KT 11/04 A3025 RMK A01 T01120038  RH  060%=      5-min Rain = 0
KAM2 051945Z 02020KT 11/04 A3025 RMK A01 T01130037  RH  060%=      5-min Rain = 0
KAM2 051946Z 02021KT 11/04 A3025 RMK A01 T01120037  RH  060%=      5-min Rain = 0
KAM2 051947Z 01020KT 11/04 A3025 RMK A01 T01130036  RH  059%=      5-min Rain = 0
KAM2 051948Z 01021KT 11/04 A3025 RMK A01 T01140035  RH  058%=      5-min Rain = 0
KAM2 051949Z 01019KT 12/04 A3025 RMK A01 T01160036  RH  058%=      5-min Rain = 0
KAM2 051950Z 02020KT 12/04 A3025 RMK A01 T01170035  RH  057%=      5-min Rain = 0
KAM2 051951Z 02017KT 12/03 A3025 RMK A01 T01170033  RH  057%=      5-min Rain = 0
KAM2 051952Z 01018KT 12/04 A3025 RMK A01 T01170036  RH  057%=      5-min Rain = 0
KAM2 051953Z 02020KT 12/04 A3025 RMK A01 T01190035  RH  056%=      5-min Rain = 0
KAM2 051954Z 02017KT 12/03 A3025 RMK A01 T01190033  RH  056%=      5-min Rain = 0
KAM2 051955Z 02016G22KT 12/03 A3025 RMK A01 T01200034  RH  055%=      5-min Rain = 0
KAM2 051956Z 01017KT 12/03 A3025 RMK A01 T01220033  RH  054%=      5-min Rain = 0
KAM2 051957Z 01018KT 12/03 A3025 RMK A01 T01230031  RH  054%=      5-min Rain = 0
KAM2 051958Z 01020G25KT 12/03 A3025 RMK A01 T01220030  RH  053%=      5-min Rain = 0
KAM2 051959Z 01018G24KT 12/03 A3025 RMK A01 T01230032  RH  054%=      5-min Rain = 0
KAM2 052000Z 01020KT 12/03 A3025 RMK A01 T01230030  RH  053%=      5-min Rain = 0
KAM2 052001Z 01023KT 12/03 A3025 RMK A01 T01200028  RH  053%=      5-min Rain = 0
KAM2 052002Z 01020G25KT 12/03 A3025 RMK A01 T01170027  RH  054%=      5-min Rain = 0
KAM2 052003Z 02018G23KT 12/03 A3025 RMK A01 T01160027  RH  054%=      5-min Rain = 0
KAM2 052004Z 01015KT 12/03 A3025 RMK A01 T01160028  RH  055%=      5-min Rain = 0
KAM2 052005Z 01014KT 12/03 A3025 RMK A01 T01170030  RH  055%=      5-min Rain = 0
KAM2 052006Z 02017G24KT 12/03 A3025 RMK A01 T01200030  RH  054%=      5-min Rain = 0
KAM2 052007Z 02023KT 12/03 A3025 RMK A01 T01200028  RH  053%=      5-min Rain = 0
KAM2 052008Z 02022KT 12/03 A3025 RMK A01 T01190026  RH  053%=      5-min Rain = 0
KAM2 052009Z 02023G29KT 12/03 A3025 RMK A01 T01180025  RH  053%=      5-min Rain = 0
KAM2 052010Z 02022KT 12/03 A3025 RMK A01 T01170026  RH  053%=      5-min Rain = 0
KAM2 052011Z 02023G28KT 12/03 A3025 RMK A01 T01180026  RH  054%=      5-min Rain = 0
KAM2 052012Z 03021G29KT 12/03 A3026 RMK A01 T01180027  RH  054%=      5-min Rain = 0
KAM2 052013Z 03023G30KT 12/03 A3026 RMK A01 T01180027  RH  054%=      5-min Rain = 0
KAM2 052014Z 03022KT 12/03 A3026 RMK A01 T01170027  RH  054%=      5-min Rain = 0
KAM2 052015Z 03026KT 12/03 A3026 RMK A01 T01160026  RH  054%=      5-min Rain = 0
KAM2 052016Z 03023KT 12/03 A3026 RMK A01 T01150025  RH  054%=      5-min Rain = 0
KAM2 052017Z 04020KT 12/03 A3026 RMK A01 T01150025  RH  054%=      5-min Rain = 0
KAM2 052018Z 04023KT 12/03 A3026 RMK A01 T01150026  RH  054%=      5-min Rain = 0
KAM2 052019Z 04020KT 11/03 A3026 RMK A01 T01140026  RH  054%=      5-min Rain = 0
KAM2 052020Z 04020KT 11/03 A3026 RMK A01 T01140026  RH  055%=      5-min Rain = 0
KAM2 052021Z 03020KT 12/03 A3025 RMK A01 T01150026  RH  055%=      5-min Rain = 0
KAM2 052022Z 04018KT 12/03 A3025 RMK A01 T01150027  RH  055%=      5-min Rain = 0
KAM2 052023Z 04019KT 12/03 A3025 RMK A01 T01160028  RH  055%=      5-min Rain = 0
KAM2 052024Z 03020KT 12/03 A3025 RMK A01 T01170029  RH  054%=      5-min Rain = 0
KAM2 052025Z 04019KT 12/03 A3025 RMK A01 T01200031  RH  054%=      5-min Rain = 0
KAM2 052026Z 03017KT 12/03 A3025 RMK A01 T01230030  RH  053%=      5-min Rain = 0
KAM2 052027Z 03015G21KT 13/03 A3025 RMK A01 T01260032  RH  053%=      5-min Rain = 0
KAM2 052028Z 02016KT 13/03 A3025 RMK A01 T01290033  RH  052%=      5-min Rain = 0
KAM2 052029Z 03020KT 13/03 A3025 RMK A01 T01290031  RH  051%=      5-min Rain = 0
KAM2 052030Z 03019KT 13/03 A3025 RMK A01 T01270028  RH  051%=      5-min Rain = 0
KAM2 052031Z 03018KT 13/03 A3025 RMK A01 T01250029  RH  052%=      5-min Rain = 0
KAM2 052032Z 02016G21KT 13/03 A3025 RMK A01 T01260029  RH  052%=      5-min Rain = 0
KAM2 052033Z 01022KT 13/03 A3025 RMK A01 T01270028  RH  051%=      5-min Rain = 0
KAM2 052034Z 02018KT 12/03 A3025 RMK A01 T01240027  RH  051%=      5-min Rain = 0
KAM2 052035Z 02021KT 12/03 A3025 RMK A01 T01230026  RH  052%=      5-min Rain = 0
KAM2 052036Z 02016KT 12/03 A3025 RMK A01 T01210026  RH  052%=      5-min Rain = 0
KAM2 052037Z 01019KT 12/03 A3025 RMK A01 T01230027  RH  052%=      5-min Rain = 0
KAM2 052038Z 01019KT 12/03 A3025 RMK A01 T01210025  RH  052%=      5-min Rain = 0
KAM2 052039Z 02020KT 12/03 A3025 RMK A01 T01210027  RH  052%=      5-min Rain = 0
KAM2 052040Z 02022KT 12/03 A3025 RMK A01 T01210026  RH  052%=      5-min Rain = 0
KAM2 052041Z 02016G21KT 12/03 A3025 RMK A01 T01210027  RH  052%=      5-min Rain = 0
KAM2 052042Z 02019KT 12/03 A3025 RMK A01 T01240029  RH  052%=      5-min Rain = 0
KAM2 052043Z 03015KT 12/03 A3025 RMK A01 T01240028  RH  052%=      5-min Rain = 0
KAM2 052044Z 02021KT 12/03 A3025 RMK A01 T01230028  RH  052%=      5-min Rain = 0
KAM2 052045Z 01017KT 13/03 A3025 RMK A01 T01260030  RH  052%=      5-min Rain = 0
KAM2 052046Z 02020KT 13/03 A3025 RMK A01 T01310032  RH  051%=      5-min Rain = 0
KAM2 052047Z 01020KT 13/03 A3025 RMK A01 T01320029  RH  050%=      5-min Rain = 0
KAM2 052048Z 01017KT 13/03 A3025 RMK A01 T01290027  RH  050%=      5-min Rain = 0
KAM2 052049Z 02018KT 13/03 A3025 RMK A01 T01270027  RH  051%=      5-min Rain = 0
KAM2 052050Z 01016KT 13/03 A3025 RMK A01 T01260027  RH  051%=      5-min Rain = 0
KAM2 052051Z 01016KT 13/03 A3025 RMK A01 T01260029  RH  051%=      5-min Rain = 0
KAM2 052052Z 01015KT 13/03 A3025 RMK A01 T01270028  RH  051%=      5-min Rain = 0
KAM2 052053Z 01019G24KT 13/03 A3025 RMK A01 T01270030  RH  051%=      5-min Rain = 0
KAM2 052054Z 01020KT 13/03 A3025 RMK A01 T01280029  RH  051%=      5-min Rain = 0
KAM2 052055Z 01017KT 13/03 A3025 RMK A01 T01260028  RH  051%=      5-min Rain = 0
KAM2 052056Z 02017KT 13/03 A3025 RMK A01 T01260030  RH  052%=      5-min Rain = 0
KAM2 052057Z 02017KT 13/03 A3025 RMK A01 T01280031  RH  052%=      5-min Rain = 0
KAM2 052058Z 01017KT 13/03 A3025 RMK A01 T01320033  RH  051%=      5-min Rain = 0
KAM2 052059Z 02016KT 13/03 A3025 RMK A01 T01320031  RH  050%=      5-min Rain = 0
KAM2 052100Z 01019KT 13/03 A3025 RMK A01 T01310031  RH  051%=      5-min Rain = 0
KAM2 052101Z 01018KT 13/03 A3025 RMK A01 T01310031  RH  051%=      5-min Rain = 0
KAM2 052102Z 01016G22KT 13/03 A3025 RMK A01 T01320033  RH  051%=      5-min Rain = 0
KAM2 052103Z 01017KT 13/03 A3025 RMK A01 T01340031  RH  050%=      5-min Rain = 0
KAM2 052104Z 01019KT 13/03 A3024 RMK A01 T01310030  RH  050%=      5-min Rain = 0
KAM2 052105Z 00017KT 13/03 A3025 RMK A01 T01340033  RH  051%=      5-min Rain = 0
KAM2 052106Z 01017KT 14/03 A3025 RMK A01 T01360034  RH  050%=      5-min Rain = 0
KAM2 052107Z 01017KT 14/03 A3025 RMK A01 T01370034  RH  050%=      5-min Rain = 0
KAM2 052108Z 00017G22KT 14/03 A3024 RMK A01 T01380033  RH  049%=      5-min Rain = 0
KAM2 052109Z 36018KT 14/03 A3024 RMK A01 T01360032  RH  049%=      5-min Rain = 0
KAM2 052110Z 00017KT 14/03 A3025 RMK A01 T01350031  RH  049%=      5-min Rain = 0
KAM2 052111Z 00019KT 14/03 A3024 RMK A01 T01380034  RH  049%=      5-min Rain = 0
KAM2 052112Z 00017KT 14/03 A3024 RMK A01 T01390031  RH  048%=      5-min Rain = 0
KAM2 052113Z 00017KT 14/03 A3025 RMK A01 T01380032  RH  049%=      5-min Rain = 0
KAM2 052114Z 00015KT 14/03 A3025 RMK A01 T01380033  RH  049%=      5-min Rain = 0
KAM2 052115Z 03018KT 14/03 A3025 RMK A01 T01380033  RH  049%=      5-min Rain = 0
KAM2 052116Z 03015KT 13/03 A3025 RMK A01 T01340029  RH  049%=      5-min Rain = 0
KAM2 052117Z 03015KT 13/03 A3025 RMK A01 T01300030  RH  050%=      5-min Rain = 0
KAM2 052118Z 01015KT 13/04 A3025 RMK A01 T01340035  RH  051%=      5-min Rain = 0
KAM2 052119Z 02014KT 14/03 A3025 RMK A01 T01390034  RH  049%=      5-min Rain = 0
KAM2 052120Z 02016G21KT 14/03 A3025 RMK A01 T01400033  RH  049%=      5-min Rain = 0
KAM2 052121Z 02016KT 14/03 A3025 RMK A01 T01380031  RH  048%=      5-min Rain = 0
KAM2 052122Z 02014KT 14/03 A3025 RMK A01 T01360032  RH  049%=      5-min Rain = 0
KAM2 052123Z 00014KT 14/03 A3025 RMK A01 T01360033  RH  050%=      5-min Rain = 0
KAM2 052124Z 00017KT 14/03 A3025 RMK A01 T01360033  RH  050%=      5-min Rain = 0
KAM2 052125Z 01016KT 14/03 A3025 RMK A01 T01380033  RH  049%=      5-min Rain = 0
KAM2 052126Z 02016KT 14/03 A3025 RMK A01 T01370033  RH  049%=      5-min Rain = 0
KAM2 052127Z 35013KT 14/03 A3025 RMK A01 T01380034  RH  049%=      5-min Rain = 0
KAM2 052128Z 01016G23KT 14/03 A3025 RMK A01 T01380034  RH  049%=      5-min Rain = 0
KAM2 052129Z 02018KT 14/03 A3025 RMK A01 T01360029  RH  049%=      5-min Rain = 0
KAM2 052130Z 01017KT 13/03 A3025 RMK A01 T01320028  RH  049%=      5-min Rain = 0
KAM2 052131Z 02016KT 13/03 A3025 RMK A01 T01320030  RH  050%=      5-min Rain = 0
KAM2 052132Z 01015KT 13/03 A3025 RMK A01 T01340030  RH  049%=      5-min Rain = 0
KAM2 052133Z 02016KT 14/03 A3025 RMK A01 T01350032  RH  049%=      5-min Rain = 0
KAM2 052134Z 01017KT 14/03 A3025 RMK A01 T01360031  RH  049%=      5-min Rain = 0
KAM2 052135Z 01017KT 13/03 A3025 RMK A01 T01340030  RH  049%=      5-min Rain = 0
KAM2 052136Z 36017KT 13/03 A3025 RMK A01 T01320029  RH  050%=      5-min Rain = 0
KAM2 052137Z 36018KT 13/03 A3025 RMK A01 T01290029  RH  051%=      5-min Rain = 0
KAM2 052138Z 00017G22KT 13/03 A3025 RMK A01 T01280029  RH  051%=      5-min Rain = 0
KAM2 052139Z 00016G21KT 13/03 A3026 RMK A01 T01280031  RH  052%=      5-min Rain = 0
KAM2 052140Z 00017KT 13/03 A3026 RMK A01 T01280029  RH  051%=      5-min Rain = 0
KAM2 052141Z 00016KT 13/03 A3025 RMK A01 T01270028  RH  051%=      5-min Rain = 0
KAM2 052142Z 36015KT 13/03 A3025 RMK A01 T01260030  RH  052%=      5-min Rain = 0
KAM2 052143Z 36016KT 13/03 A3025 RMK A01 T01270030  RH  051%=      5-min Rain = 0
KAM2 052144Z 35017KT 13/03 A3025 RMK A01 T01280029  RH  051%=      5-min Rain = 0
KAM2 052145Z 00017KT 13/03 A3025 RMK A01 T01280029  RH  051%=      5-min Rain = 0
KAM2 052146Z 01016KT 13/03 A3025 RMK A01 T01270028  RH  051%=      5-min Rain = 0
KAM2 052147Z 00015KT 13/03 A3025 RMK A01 T01270028  RH  051%=      5-min Rain = 0
KAM2 052148Z 36017KT 13/03 A3025 RMK A01 T01270028  RH  051%=      5-min Rain = 0
KAM2 052149Z 36016KT 13/03 A3025 RMK A01 T01260028  RH  051%=      5-min Rain = 0
KAM2 052150Z 36016KT 13/03 A3025 RMK A01 T01250028  RH  051%=      5-min Rain = 0
KAM2 052151Z 36014KT 13/03 A3026 RMK A01 T01260029  RH  052%=      5-min Rain = 0
KAM2 052152Z 36016KT 13/03 A3025 RMK A01 T01300030  RH  051%=      5-min Rain = 0
KAM2 052153Z 00016KT 13/03 A3025 RMK A01 T01320030  RH  050%=      5-min Rain = 0
KAM2 052154Z 36015KT 14/03 A3025 RMK A01 T01360031  RH  049%=      5-min Rain = 0
KAM2 052155Z 36016KT 14/03 A3026 RMK A01 T01380030  RH  048%=      5-min Rain = 0
KAM2 052156Z 35016KT 14/03 A3026 RMK A01 T01400031  RH  048%=      5-min Rain = 0
KAM2 052157Z 36017KT 14/03 A3025 RMK A01 T01410029  RH  047%=      5-min Rain = 0
KAM2 052158Z 00017KT 14/03 A3026 RMK A01 T01400029  RH  047%=      5-min Rain = 0
KAM2 052159Z 35015G20KT 14/03 A3026 RMK A01 T01390027  RH  047%=      5-min Rain = 0
KAM2 052200Z 36015KT 14/03 A3026 RMK A01 T01400029  RH  047%=      5-min Rain = 0
KAM2 052201Z 01019G24KT 14/03 A3026 RMK A01 T01440031  RH  046%=      5-min Rain = 0
KAM2 052202Z 01019KT 15/03 A3026 RMK A01 T01460030  RH  045%=      5-min Rain = 0
KAM2 052203Z 36016G21KT 15/03 A3025 RMK A01 T01460029  RH  045%=      5-min Rain = 0
KAM2 052204Z 35013G18KT 15/03 A3026 RMK A01 T01460029  RH  045%=      5-min Rain = 0
KAM2 052205Z 36014KT 15/03 A3025 RMK A01 T01460029  RH  045%=      5-min Rain = 0
KAM2 052206Z 01014KT 15/03 A3025 RMK A01 T01450029  RH  045%=      5-min Rain = 0
KAM2 052207Z 01017KT 14/03 A3025 RMK A01 T01440029  RH  046%=      5-min Rain = 0
KAM2 052208Z 00014KT 15/03 A3025 RMK A01 T01450030  RH  046%=      5-min Rain = 0
KAM2 052209Z 00015KT 15/03 A3026 RMK A01 T01460029  RH  045%=      5-min Rain = 0
KAM2 052210Z 00015KT 14/03 A3025 RMK A01 T01430028  RH  046%=      5-min Rain = 0
KAM2 052211Z 00014KT 14/03 A3026 RMK A01 T01430030  RH  046%=      5-min Rain = 0
KAM2 052212Z 36015KT 15/03 A3026 RMK A01 T01460033  RH  047%=      5-min Rain = 0
KAM2 052213Z 36014KT 15/03 A3026 RMK A01 T01470032  RH  046%=      5-min Rain = 0
KAM2 052214Z 00013KT 15/03 A3026 RMK A01 T01460033  RH  047%=      5-min Rain = 0
KAM2 052215Z 34014KT 15/03 A3025 RMK A01 T01460034  RH  047%=      5-min Rain = 0
KAM2 052216Z 35016G21KT 15/04 A3025 RMK A01 T01470035  RH  047%=      5-min Rain = 0
KAM2 052217Z 35016KT 15/04 A3025 RMK A01 T01460035  RH  047%=      5-min Rain = 0
KAM2 052218Z 34015G20KT 14/04 A3025 RMK A01 T01430035  RH  048%=      5-min Rain = 0
KAM2 052219Z 35014KT 14/04 A3025 RMK A01 T01440039  RH  049%=      5-min Rain = 0
KAM2 052220Z 35012KT 15/04 A3026 RMK A01 T01470039  RH  048%=      5-min Rain = 0
KAM2 052221Z 35013KT 15/04 A3025 RMK A01 T01450038  RH  049%=      5-min Rain = 0
KAM2 052222Z 35012G17KT 14/04 A3025 RMK A01 T01420036  RH  049%=      5-min Rain = 0
KAM2 052223Z 01014KT 14/03 A3026 RMK A01 T01400034  RH  049%=      5-min Rain = 0
KAM2 052224Z 01013KT 14/03 A3026 RMK A01 T01380031  RH  049%=      5-min Rain = 0
KAM2 052225Z 01015KT 14/03 A3026 RMK A01 T01360032  RH  049%=      5-min Rain = 0
KAM2 052226Z 00014KT 14/03 A3026 RMK A01 T01350034  RH  050%=      5-min Rain = 0
KAM2 052227Z 00015KT 13/04 A3026 RMK A01 T01340035  RH  051%=      5-min Rain = 0
KAM2 052228Z 00013KT 13/03 A3026 RMK A01 T01320034  RH  052%=      5-min Rain = 0
KAM2 052229Z 36011KT 13/04 A3026 RMK A01 T01310035  RH  052%=      5-min Rain = 0
KAM2 052230Z 36010KT 13/04 A3026 RMK A01 T01310036  RH  052%=      5-min Rain = 0
KAM2 052231Z 35010KT 13/04 A3026 RMK A01 T01310036  RH  052%=      5-min Rain = 0
KAM2 052232Z 36011KT 13/04 A3026 RMK A01 T01310036  RH  053%=      5-min Rain = 0
KAM2 052233Z 00011KT 13/04 A3026 RMK A01 T01310036  RH  052%=      5-min Rain = 0
KAM2 052234Z 00013KT 13/04 A3026 RMK A01 T01310036  RH  052%=      5-min Rain = 0
KAM2 052235Z 01012KT 13/04 A3026 RMK A01 T01310035  RH  052%=      5-min Rain = 0
KAM2 052236Z 01014KT 13/03 A3026 RMK A01 T01300034  RH  052%=      5-min Rain = 0
KAM2 052237Z 01014KT 13/03 A3026 RMK A01 T01300033  RH  052%=      5-min Rain = 0
KAM2 052238Z 01014KT 13/03 A3026 RMK A01 T01290034  RH  052%=      5-min Rain = 0
KAM2 052239Z 00011KT 13/03 A3026 RMK A01 T01290034  RH  053%=      5-min Rain = 0
KAM2 052240Z 00010KT 13/03 A3026 RMK A01 T01300034  RH  052%=      5-min Rain = 0
KAM2 052241Z 01010KT 13/03 A3026 RMK A01 T01310034  RH  052%=      5-min Rain = 0
KAM2 052242Z 00011KT 13/04 A3026 RMK A01 T01340035  RH  051%=      5-min Rain = 0
KAM2 052243Z 01016KT 14/04 A3026 RMK A01 T01370035  RH  050%=      5-min Rain = 0
KAM2 052244Z 01017KT 14/03 A3026 RMK A01 T01380034  RH  049%=      5-min Rain = 0
KAM2 052245Z 01014KT 14/03 A3026 RMK A01 T01360032  RH  049%=      5-min Rain = 0
KAM2 052246Z 00014KT 14/03 A3026 RMK A01 T01360033  RH  050%=      5-min Rain = 0
KAM2 052247Z 00013KT 14/03 A3026 RMK A01 T01370034  RH  050%=      5-min Rain = 0
KAM2 052248Z 35016KT 14/04 A3025 RMK A01 T01380035  RH  050%=      5-min Rain = 0
KAM2 052249Z 36015KT 14/03 A3026 RMK A01 T01380032  RH  049%=      5-min Rain = 0
KAM2 052250Z 01015G21KT 14/03 A3026 RMK A01 T01370031  RH  049%=      5-min Rain = 0
KAM2 052251Z 00015KT 14/03 A3026 RMK A01 T01380032  RH  049%=      5-min Rain = 0
KAM2 052252Z 01016G21KT 14/03 A3026 RMK A01 T01380032  RH  048%=      5-min Rain = 0
KAM2 052253Z 01016KT 14/03 A3026 RMK A01 T01380031  RH  048%=      5-min Rain = 0
KAM2 052254Z 35014KT 14/03 A3026 RMK A01 T01360031  RH  049%=      5-min Rain = 0
KAM2 052255Z 35014KT 14/03 A3025 RMK A01 T01370032  RH  049%=      5-min Rain = 0
KAM2 052256Z 34015KT 14/03 A3025 RMK A01 T01380032  RH  048%=      5-min Rain = 0
KAM2 052257Z 35011KT 14/03 A3025 RMK A01 T01380032  RH  049%=      5-min Rain = 0
KAM2 052258Z 36014KT 14/03 A3025 RMK A01 T01380034  RH  049%=      5-min Rain = 0
KAM2 052259Z 36013KT 14/03 A3026 RMK A01 T01390034  RH  049%=      5-min Rain = 0
KAM2 052300Z 01016KT 14/03 A3026 RMK A01 T01380031  RH  048%=      5-min Rain = 0
KAM2 052301Z 35013KT 14/03 A3026 RMK A01 T01370031  RH  049%=      5-min Rain = 0
KAM2 052302Z 36012KT 14/03 A3025 RMK A01 T01350032  RH  049%=      5-min Rain = 0
KAM2 052303Z 01013KT 14/03 A3026 RMK A01 T01370032  RH  049%=      5-min Rain = 0
KAM2 052304Z 01016KT 14/03 A3026 RMK A01 T01390027  RH  047%=      5-min Rain = 0
KAM2 052305Z 01013KT 14/02 A3026 RMK A01 T01380023  RH  046%=      5-min Rain = 0
KAM2 052306Z 01012KT 14/02 A3026 RMK A01 T01360023  RH  046%=      5-min Rain = 0
KAM2 052307Z 02014KT 14/02 A3026 RMK A01 T01370024  RH  047%=      5-min Rain = 0
KAM2 052308Z 01014KT 14/02 A3026 RMK A01 T01380024  RH  046%=      5-min Rain = 0
KAM2 052309Z 01010KT 14/02 A3026 RMK A01 T01370024  RH  046%=      5-min Rain = 0
KAM2 052310Z 01010KT 14/03 A3026 RMK A01 T01380026  RH  047%=      5-min Rain = 0
KAM2 052311Z 35011KT 14/03 A3026 RMK A01 T01400026  RH  046%=      5-min Rain = 0
KAM2 052312Z 35014KT 14/02 A3025 RMK A01 T01400024  RH  045%=      5-min Rain = 0
KAM2 052313Z 36013KT 14/02 A3025 RMK A01 T01390024  RH  046%=      5-min Rain = 0
KAM2 052314Z 01014KT 14/02 A3026 RMK A01 T01380024  RH  046%=      5-min Rain = 0
KAM2 052315Z 00012KT 14/02 A3025 RMK A01 T01380022  RH  046%=      5-min Rain = 0
KAM2 052316Z 36011KT 14/02 A3025 RMK A01 T01370023  RH  046%=      5-min Rain = 0
KAM2 052317Z 36012KT 14/02 A3025 RMK A01 T01370024  RH  046%=      5-min Rain = 0
KAM2 052318Z 36012KT 14/03 A3025 RMK A01 T01380025  RH  046%=      5-min Rain = 0
KAM2 052319Z 36011KT 14/03 A3025 RMK A01 T01380025  RH  046%=      5-min Rain = 0
KAM2 052320Z 36009KT 14/03 A3025 RMK A01 T01380025  RH  046%=      5-min Rain = 0
KAM2 052321Z 00013KT 14/03 A3025 RMK A01 T01380025  RH  046%=      5-min Rain = 0
KAM2 052322Z 01015KT 14/02 A3025 RMK A01 T01380024  RH  046%=      5-min Rain = 0
KAM2 052323Z 01014KT 14/02 A3025 RMK A01 T01390024  RH  046%=      5-min Rain = 0
KAM2 052324Z 01013KT 14/02 A3026 RMK A01 T01390023  RH  045%=      5-min Rain = 0
KAM2 052325Z 02012KT 14/02 A3026 RMK A01 T01390023  RH  045%=      5-min Rain = 0
KAM2 052326Z 01012KT 14/02 A3026 RMK A01 T01390023  RH  045%=      5-min Rain = 0
KAM2 052327Z 00014KT 14/02 A3026 RMK A01 T01390023  RH  046%=      5-min Rain = 0
KAM2 052328Z 36016KT 14/02 A3025 RMK A01 T01390023  RH  045%=      5-min Rain = 0
KAM2 052329Z 00015KT 14/02 A3025 RMK A01 T01390023  RH  045%=      5-min Rain = 0
KAM2 052330Z 01014KT 14/02 A3026 RMK A01 T01390023  RH  046%=      5-min Rain = 0
KAM2 052331Z 01013KT 14/02 A3026 RMK A01 T01380024  RH  046%=      5-min Rain = 0
KAM2 052332Z 02017KT 14/02 A3026 RMK A01 T01380024  RH  046%=      5-min Rain = 0
KAM2 052333Z 02015KT 14/02 A3026 RMK A01 T01380024  RH  046%=      5-min Rain = 0
KAM2 052334Z 02014KT 14/03 A3026 RMK A01 T01380025  RH  046%=      5-min Rain = 0
KAM2 052335Z 01012KT 14/03 A3026 RMK A01 T01370025  RH  047%=      5-min Rain = 0
KAM2 052336Z 01013KT 14/03 A3026 RMK A01 T01370026  RH  047%=      5-min Rain = 0
KAM2 052337Z 01011KT 14/03 A3026 RMK A01 T01370026  RH  047%=      5-min Rain = 0
KAM2 052338Z 00014KT 14/02 A3026 RMK A01 T01370024  RH  046%=      5-min Rain = 0
KAM2 052339Z 00014KT 14/02 A3026 RMK A01 T01370020  RH  045%=      5-min Rain = 0
KAM2 052340Z 00013KT 14/02 A3026 RMK A01 T01380020  RH  045%=      5-min Rain = 0
KAM2 052341Z 00013KT 14/02 A3026 RMK A01 T01380022  RH  045%=      5-min Rain = 0
KAM2 052342Z 36013KT 14/02 A3026 RMK A01 T01380023  RH  046%=      5-min Rain = 0
KAM2 052343Z 36014KT 14/02 A3026 RMK A01 T01380023  RH  046%=      5-min Rain = 0
KAM2 052344Z 36012KT 14/02 A3026 RMK A01 T01370023  RH  046%=      5-min Rain = 0
KAM2 052345Z 01011KT 14/02 A3026 RMK A01 T01360023  RH  046%=      5-min Rain = 0
KAM2 052346Z 00012KT 14/02 A3026 RMK A01 T01350023  RH  047%=      5-min Rain = 0
KAM2 052347Z 01013KT 13/02 A3026 RMK A01 T01340022  RH  047%=      5-min Rain = 0
KAM2 052348Z 01014KT 13/02 A3026 RMK A01 T01330020  RH  046%=      5-min Rain = 0
KAM2 052349Z 00013KT 13/02 A3026 RMK A01 T01310019  RH  047%=      5-min Rain = 0
KAM2 052350Z 01014KT 13/02 A3026 RMK A01 T01310020  RH  047%=      5-min Rain = 0
KAM2 052351Z 01012KT 13/02 A3026 RMK A01 T01300021  RH  047%=      5-min Rain = 0
KAM2 052352Z 01012KT 13/02 A3026 RMK A01 T01300021  RH  048%=      5-min Rain = 0
KAM2 052353Z 00012KT 13/02 A3026 RMK A01 T01300022  RH  048%=      5-min Rain = 0
KAM2 052354Z 00010KT 13/02 A3026 RMK A01 T01300022  RH  048%=      5-min Rain = 0
KAM2 052355Z 00007KT 13/02 A3026 RMK A01 T01300023  RH  048%=      5-min Rain = 0
KAM2 052356Z 00009KT 13/02 A3026 RMK A01 T01290022  RH  048%=      5-min Rain = 0
KAM2 052357Z 00009KT 13/02 A3026 RMK A01 T01290023  RH  048%=      5-min Rain = 0
KAM2 052358Z 00009KT 13/02 A3026 RMK A01 T01290023  RH  048%=      5-min Rain = 0
KAM2 052359Z 01010KT 13/02 A3026 RMK A01 T01290023  RH  048%=      5-min Rain = 0
KAM2 060000Z 00009KT 13/02 A3026 RMK A01 T01290022  RH  048%=      5-min Rain = 0
KAM2 060001Z 36009KT 13/02 A3026 RMK A01 T01290021  RH  048%=      5-min Rain = 0
KAM2 060002Z 36010KT 13/02 A3026 RMK A01 T01290021  RH  048%=      5-min Rain = 0
KAM2 060003Z 35010KT 13/02 A3026 RMK A01 T01280020  RH  048%=      5-min Rain = 0
KAM2 060004Z 36007KT 13/02 A3026 RMK A01 T01280020  RH  048%=      5-min Rain = 0
KAM2 060005Z 35008KT 13/02 A3026 RMK A01 T01270020  RH  048%=      5-min Rain = 0
KAM2 060006Z 00008KT 13/02 A3026 RMK A01 T01280020  RH  048%=      5-min Rain = 0
KAM2 060007Z 36007KT 13/02 A3026 RMK A01 T01270020  RH  048%=      5-min Rain = 0
KAM2 060008Z 36008KT 13/02 A3026 RMK A01 T01270020  RH  048%=      5-min Rain = 0
KAM2 060009Z 36010KT 13/02 A3026 RMK A01 T01270020  RH  048%=      5-min Rain = 0
KAM2 060010Z 36008KT 13/02 A3026 RMK A01 T01280019  RH  048%=      5-min Rain = 0
KAM2 060011Z 00006KT 13/02 A3026 RMK A01 T01280019  RH  048%=      5-min Rain = 0
KAM2 060012Z 36007KT 13/02 A3026 RMK A01 T01270019  RH  048%=      5-min Rain = 0
KAM2 060013Z 00009KT 13/02 A3026 RMK A01 T01270019  RH  048%=      5-min Rain = 0
KAM2 060014Z 00009KT 13/02 A3026 RMK A01 T01270019  RH  048%=      5-min Rain = 0
KAM2 060015Z 00008KT 13/02 A3026 RMK A01 T01260018  RH  048%=      5-min Rain = 0
KAM2 060016Z 36009KT 13/02 A3026 RMK A01 T01260018  RH  048%=      5-min Rain = 0
KAM2 060017Z 35009KT 13/02 A3026 RMK A01 T01260018  RH  048%=      5-min Rain = 0
KAM2 060018Z 36009KT 13/02 A3026 RMK A01 T01250018  RH  048%=      5-min Rain = 0
KAM2 060019Z 35007KT 13/02 A3026 RMK A01 T01250018  RH  048%=      5-min Rain = 0
KAM2 060020Z 35007KT 13/02 A3026 RMK A01 T01250018  RH  048%=      5-min Rain = 0
KAM2 060021Z 35007KT 13/02 A3026 RMK A01 T01250019  RH  048%=      5-min Rain = 0
KAM2 060022Z 35006KT 12/02 A3026 RMK A01 T01240019  RH  049%=      5-min Rain = 0
KAM2 060023Z 34005KT 12/02 A3026 RMK A01 T01230019  RH  049%=      5-min Rain = 0
KAM2 060024Z 34005KT 12/02 A3026 RMK A01 T01210018  RH  049%=      5-min Rain = 0
KAM2 060025Z 35005KT 12/02 A3026 RMK A01 T01200019  RH  050%=      5-min Rain = 0
KAM2 060026Z 34005KT 12/02 A3026 RMK A01 T01200018  RH  050%=      5-min Rain = 0
KAM2 060027Z 35005KT 12/02 A3026 RMK A01 T01190018  RH  050%=      5-min Rain = 0
KAM2 060028Z 35005KT 12/02 A3026 RMK A01 T01180018  RH  051%=      5-min Rain = 0
KAM2 060029Z 35005KT 12/02 A3027 RMK A01 T01170018  RH  051%=      5-min Rain = 0
KAM2 060030Z 34005KT 12/02 A3027 RMK A01 T01160018  RH  051%=      5-min Rain = 0
KAM2 060031Z 34005KT 11/02 A3027 RMK A01 T01140018  RH  052%=      5-min Rain = 0
KAM2 060032Z 34005KT 11/02 A3027 RMK A01 T01140019  RH  052%=      5-min Rain = 0
KAM2 060033Z 34005KT 11/02 A3027 RMK A01 T01140019  RH  052%=      5-min Rain = 0
KAM2 060034Z 34005KT 11/02 A3027 RMK A01 T01130018  RH  052%=      5-min Rain = 0
KAM2 060035Z 34005KT 11/02 A3027 RMK A01 T01110018  RH  053%=      5-min Rain = 0
KAM2 060036Z 34005KT 11/02 A3027 RMK A01 T01100017  RH  053%=      5-min Rain = 0
KAM2 060037Z 33005KT 11/02 A3027 RMK A01 T01090018  RH  053%=      5-min Rain = 0
KAM2 060038Z 34005KT 11/02 A3027 RMK A01 T01080018  RH  054%=      5-min Rain = 0
KAM2 060039Z 34005KT 11/02 A3027 RMK A01 T01080018  RH  054%=      5-min Rain = 0
KAM2 060040Z 34005KT 11/02 A3027 RMK A01 T01070018  RH  054%=      5-min Rain = 0
KAM2 060041Z 34004KT 11/02 A3027 RMK A01 T01060017  RH  054%=      5-min Rain = 0
KAM2 060042Z 35004KT 11/02 A3027 RMK A01 T01050017  RH  055%=      5-min Rain = 0
KAM2 060043Z 34003KT 10/02 A3027 RMK A01 T01040018  RH  055%=      5-min Rain = 0
KAM2 060044Z 35005KT 10/02 A3027 RMK A01 T01040018  RH  055%=      5-min Rain = 0
KAM2 060045Z 34004KT 11/02 A3027 RMK A01 T01060018  RH  055%=      5-min Rain = 0
KAM2 060046Z 33004KT 11/02 A3027 RMK A01 T01070017  RH  054%=      5-min Rain = 0
KAM2 060047Z 33004KT 11/02 A3027 RMK A01 T01050016  RH  054%=      5-min Rain = 0
KAM2 060048Z 34003KT 10/02 A3027 RMK A01 T01030015  RH  054%=      5-min Rain = 0
KAM2 060049Z 34003KT 10/02 A3027 RMK A01 T01010015  RH  055%=      5-min Rain = 0
KAM2 060050Z 34003KT 10/02 A3027 RMK A01 T01000016  RH  056%=      5-min Rain = 0
KAM2 060051Z 34003KT 10/02 A3027 RMK A01 T00990016  RH  056%=      5-min Rain = 0
KAM2 060052Z 34003KT 10/02 A3027 RMK A01 T00990016  RH  056%=      5-min Rain = 0
KAM2 060053Z 33004KT 10/02 A3027 RMK A01 T00990016  RH  056%=      5-min Rain = 0
KAM2 060054Z 34003KT 10/02 A3027 RMK A01 T00990016  RH  056%=      5-min Rain = 0
KAM2 060055Z 34003KT 10/02 A3028 RMK A01 T00990016  RH  056%=      5-min Rain = 0
KAM2 060056Z 35002KT 10/02 A3028 RMK A01 T00980015  RH  056%=      5-min Rain = 0
KAM2 060057Z 34003KT 10/01 A3028 RMK A01 T00950013  RH  057%=      5-min Rain = 0
KAM2 060058Z 35003KT 09/01 A3028 RMK A01 T00940014  RH  057%=      5-min Rain = 0
KAM2 060059Z 35003KT 09/01 A3028 RMK A01 T00930014  RH  058%=      5-min Rain = 0
KAM2 060100Z 36002KT 09/01 A3028 RMK A01 T00920014  RH  058%=      5-min Rain = 0
KAM2 060101Z 36002KT 09/01 A3028 RMK A01 T00920014  RH  058%=      5-min Rain = 0
KAM2 060102Z 35002KT 09/01 A3028 RMK A01 T00910013  RH  058%=      5-min Rain = 0
KAM2 060103Z 35002KT 09/01 A3028 RMK A01 T00900014  RH  059%=      5-min Rain = 0
KAM2 060104Z 34001KT 09/01 A3028 RMK A01 T00900014  RH  059%=      5-min Rain = 0
KAM2 060105Z 34001KT 09/01 A3028 RMK A01 T00900014  RH  059%=      5-min Rain = 0
KAM2 060106Z 35001KT 09/01 A3028 RMK A01 T00900014  RH  059%=      5-min Rain = 0
KAM2 060107Z 35000KT 09/01 A3028 RMK A01 T00890013  RH  059%=      5-min Rain = 0
KAM2 060108Z 35000KT 09/01 A3028 RMK A01 T00890014  RH  059%=      5-min Rain = 0
KAM2 060109Z 00000KT 09/01 A3028 RMK A01 T00880012  RH  059%=      5-min Rain = 0
KAM2 060110Z 00000KT 09/01 A3028 RMK A01 T00870013  RH  060%=      5-min Rain = 0
KAM2 060111Z 03000KT 09/01 A3028 RMK A01 T00870012  RH  059%=      5-min Rain = 0
KAM2 060112Z 02001KT 09/01 A3028 RMK A01 T00870012  RH  059%=      5-min Rain = 0
KAM2 060113Z 03001KT 09/01 A3028 RMK A01 T00870011  RH  059%=      5-min Rain = 0
KAM2 060114Z 04002KT 09/01 A3028 RMK A01 T00860010  RH  059%=      5-min Rain = 0
KAM2 060115Z 04002KT 09/01 A3028 RMK A01 T00850010  RH  059%=      5-min Rain = 0
KAM2 060116Z 05002KT 09/01 A3028 RMK A01 T00850011  RH  060%=      5-min Rain = 0
KAM2 060117Z 05002KT 08/01 A3028 RMK A01 T00840011  RH  060%=      5-min Rain = 0
KAM2 060118Z 05002KT 08/01 A3028 RMK A01 T00830011  RH  060%=      5-min Rain = 0
KAM2 060119Z 07001KT 08/01 A3028 RMK A01 T00830011  RH  061%=      5-min Rain = 0
KAM2 060120Z 07000KT 08/01 A3028 RMK A01 T00830012  RH  061%=      5-min Rain = 0
KAM2 060121Z 07001KT 08/01 A3028 RMK A01 T00820010  RH  060%=      5-min Rain = 0
KAM2 060122Z 06002KT 08/01 A3028 RMK A01 T00810008  RH  060%=      5-min Rain = 0
KAM2 060123Z 07002KT 08/01 A3028 RMK A01 T00810007  RH  060%=      5-min Rain = 0
KAM2 060124Z 07002KT 08/01 A3028 RMK A01 T00800010  RH  061%=      5-min Rain = 0
KAM2 060125Z 06002KT 08/01 A3028 RMK A01 T00800009  RH  061%=      5-min Rain = 0
KAM2 060126Z 06002KT 08/01 A3028 RMK A01 T00790010  RH  062%=      5-min Rain = 0
KAM2 060127Z 06002KT 08/01 A3028 RMK A01 T00790010  RH  062%=      5-min Rain = 0
KAM2 060128Z 07002KT 08/01 A3028 RMK A01 T00780009  RH  061%=      5-min Rain = 0
KAM2 060129Z 07002KT 08/01 A3028 RMK A01 T00780007  RH  061%=      5-min Rain = 0
KAM2 060130Z 07002KT 08/01 A3028 RMK A01 T00760013  RH  064%=      5-min Rain = 0
KAM2 060131Z 09001KT 07/01 A3028 RMK A01 T00730012  RH  065%=      5-min Rain = 0
KAM2 060132Z 08001KT 07/01 A3028 RMK A01 T00710010  RH  065%=      5-min Rain = 0
KAM2 060133Z 07000KT 07/01 A3029 RMK A01 T00700006  RH  064%=      5-min Rain = 0
KAM2 060134Z 00000KT 07/01 A3029 RMK A01 T00690005  RH  063%=      5-min Rain = 0
KAM2 060135Z 00000KT 07/00 A3029 RMK A01 T00690004  RH  063%=      5-min Rain = 0
KAM2 060136Z 00000KT 07/00 A3029 RMK A01 T00690002  RH  062%=      5-min Rain = 0
KAM2 060137Z 04000KT 07/00 A3029 RMK A01 T006900-0  RH  061%=      5-min Rain = 0
KAM2 060138Z 05001KT 07/00 A3029 RMK A01 T007000-0  RH  061%=      5-min Rain = 0
KAM2 060139Z 00001KT 07/00 A3029 RMK A01 T00710000  RH  061%=      5-min Rain = 0
KAM2 060140Z 33001KT 07/00 A3029 RMK A01 T00710001  RH  061%=      5-min Rain = 0
KAM2 060141Z 32001KT 07/00 A3029 RMK A01 T00730001  RH  060%=      5-min Rain = 0
KAM2 060142Z 30001KT 07/M00 A3029 RMK A01 T00731001  RH  060%=      5-min Rain = 0
KAM2 060143Z 30002KT 07/M00 A3029 RMK A01 T00721003  RH  059%=      5-min Rain = 0
KAM2 060144Z 32002KT 07/M00 A3029 RMK A01 T00691002  RH  060%=      5-min Rain = 0
KAM2 060145Z 34002KT 07/00 A3029 RMK A01 T00690000  RH  061%=      5-min Rain = 0
KAM2 060146Z 34002KT 07/00 A3029 RMK A01 T00700001  RH  062%=      5-min Rain = 0
KAM2 060147Z 35002KT 07/00 A3029 RMK A01 T00700002  RH  062%=      5-min Rain = 0
KAM2 060148Z 35002KT 07/00 A3029 RMK A01 T00700002  RH  062%=      5-min Rain = 0
KAM2 060149Z 00002KT 07/00 A3029 RMK A01 T00710002  RH  062%=      5-min Rain = 0
KAM2 060150Z 36001KT 07/00 A3029 RMK A01 T00710001  RH  061%=      5-min Rain = 0
KAM2 060151Z 35001KT 07/00 A3029 RMK A01 T00710001  RH  061%=      5-min Rain = 0
KAM2 060152Z 34001KT 07/00 A3029 RMK A01 T00700001  RH  061%=      5-min Rain = 0
KAM2 060153Z 34000KT 07/00 A3029 RMK A01 T00700001  RH  061%=      5-min Rain = 0
KAM2 060154Z 35000KT 07/00 A3029 RMK A01 T00690001  RH  062%=      5-min Rain = 0
KAM2 060155Z 00000KT 07/00 A3029 RMK A01 T00680000  RH  062%=      5-min Rain = 0
KAM2 060156Z 00000KT 07/00 A303 RMK A01 T00670000  RH  063%=      5-min Rain = 0
KAM2 060157Z 01000KT 07/00 A303 RMK A01 T00660000  RH  063%=      5-min Rain = 0
KAM2 060158Z 02000KT 07/00 A303 RMK A01 T00650001  RH  064%=      5-min Rain = 0
KAM2 060159Z 00000KT 06/00 A303 RMK A01 T006400-0  RH  064%=      5-min Rain = 0
KAM2 060200Z 00000KT 06/M00 A303 RMK A01 T00621001  RH  064%=      5-min Rain = 0
KAM2 060201Z 00000KT 06/M00 A303 RMK A01 T00611003  RH  064%=      5-min Rain = 0
KAM2 060202Z 00000KT 06/M00 A303 RMK A01 T00591002  RH  065%=      5-min Rain = 0
KAM2 060203Z 00000KT 06/M00 A303 RMK A01 T00571001  RH  066%=      5-min Rain = 0
KAM2 060204Z 00000KT 06/M00 A303 RMK A01 T00551002  RH  067%=      5-min Rain = 0
KAM2 060205Z 00000KT 05/M00 A303 RMK A01 T00531003  RH  067%=      5-min Rain = 0
KAM2 060206Z 00000KT 05/M00 A303 RMK A01 T00521003  RH  067%=      5-min Rain = 0
KAM2 060207Z 00000KT 05/M00 A303 RMK A01 T00501002  RH  069%=      5-min Rain = 0
KAM2 060208Z 10001KT 05/M00 A303 RMK A01 T00481003  RH  070%=      5-min Rain = 0
KAM2 060209Z 11001KT 05/M00 A303 RMK A01 T00471004  RH  069%=      5-min Rain = 0
KAM2 060210Z 12001KT 05/M01 A303 RMK A01 T00471005  RH  069%=      5-min Rain = 0
KAM2 060211Z 12001KT 05/M01 A303 RMK A01 T00451007  RH  069%=      5-min Rain = 0
KAM2 060212Z 12000KT 04/M01 A303 RMK A01 T00431010  RH  068%=      5-min Rain = 0
KAM2 060213Z 00000KT 04/M01 A303 RMK A01 T00421011  RH  068%=      5-min Rain = 0
KAM2 060214Z 00000KT 04/M01 A303 RMK A01 T00421010  RH  069%=      5-min Rain = 0
KAM2 060215Z 00000KT 04/M01 A303 RMK A01 T00421010  RH  069%=      5-min Rain = 0
KAM2 060216Z 13000KT 04/M01 A303 RMK A01 T00421011  RH  069%=      5-min Rain = 0
KAM2 060217Z 15001KT 04/M01 A303 RMK A01 T00411011  RH  069%=      5-min Rain = 0
KAM2 060218Z 15002KT 04/M01 A303 RMK A01 T00401011  RH  069%=      5-min Rain = 0
KAM2 060219Z 15001KT 04/M01 A303 RMK A01 T00391012  RH  070%=      5-min Rain = 0
KAM2 060220Z 14001KT 04/M01 A303 RMK A01 T00381013  RH  069%=      5-min Rain = 0
KAM2 060221Z 15001KT 04/M01 A303 RMK A01 T00381014  RH  069%=      5-min Rain = 0
KAM2 060222Z 15001KT 04/M01 A303 RMK A01 T00381013  RH  069%=      5-min Rain = 0
KAM2 060223Z 16001KT 04/M01 A303 RMK A01 T00371014  RH  069%=      5-min Rain = 0
KAM2 060224Z 16001KT 04/M02 A303 RMK A01 T00361016  RH  069%=      5-min Rain = 0
KAM2 060225Z 16001KT 03/M02 A303 RMK A01 T00341016  RH  070%=      5-min Rain = 0
KAM2 060226Z 17002KT 03/M02 A303 RMK A01 T00331015  RH  070%=      5-min Rain = 0
KAM2 060227Z 17002KT 03/M02 A303 RMK A01 T00331016  RH  071%=      5-min Rain = 0
KAM2 060228Z 17002KT 03/M02 A303 RMK A01 T00321016  RH  071%=      5-min Rain = 0
KAM2 060229Z 17002KT 03/M02 A303 RMK A01 T00321015  RH  071%=      5-min Rain = 0
KAM2 060230Z 17002KT 03/M02 A303 RMK A01 T00331015  RH  071%=      5-min Rain = 0
KAM2 060231Z 17002KT 03/M01 A3031 RMK A01 T00331014  RH  071%=      5-min Rain = 0
KAM2 060232Z 17002KT 03/M01 A3031 RMK A01 T00331014  RH  071%=      5-min Rain = 0
KAM2 060233Z 17003KT 03/M02 A3031 RMK A01 T00321015  RH  072%=      5-min Rain = 0
KAM2 060234Z 16003KT 03/M02 A3031 RMK A01 T00301015  RH  072%=      5-min Rain = 0
KAM2 060235Z 17003KT 03/M02 A3031 RMK A01 T00301016  RH  072%=      5-min Rain = 0
KAM2 060236Z 18004KT 03/M02 A3031 RMK A01 T00291015  RH  073%=      5-min Rain = 0
KAM2 060237Z 18004KT 03/M02 A3031 RMK A01 T00291015  RH  073%=      5-min Rain = 0
KAM2 060238Z 18004KT 03/M01 A3031 RMK A01 T00301014  RH  073%=      5-min Rain = 0
KAM2 060239Z 19004KT 03/M02 A3031 RMK A01 T00301015  RH  073%=      5-min Rain = 0
KAM2 060240Z 18004KT 03/M02 A3031 RMK A01 T00301015  RH  072%=      5-min Rain = 0
KAM2 060241Z 18003KT 03/M02 A3031 RMK A01 T00301016  RH  072%=      5-min Rain = 0
KAM2 060242Z 18004KT 03/M02 A3031 RMK A01 T00291016  RH  072%=      5-min Rain = 0
KAM2 060243Z 19005KT 03/M02 A3031 RMK A01 T00291016  RH  072%=      5-min Rain = 0
KAM2 060244Z 19004KT 03/M02 A3031 RMK A01 T00281016  RH  072%=      5-min Rain = 0
KAM2 060245Z 19004KT 03/M02 A3031 RMK A01 T00271017  RH  073%=      5-min Rain = 0
KAM2 060246Z 19004KT 03/M02 A3031 RMK A01 T00261016  RH  073%=      5-min Rain = 0
KAM2 060247Z 19004KT 03/M02 A3031 RMK A01 T00261016  RH  074%=      5-min Rain = 0
KAM2 060248Z 19004KT 03/M02 A3031 RMK A01 T00261015  RH  074%=      5-min Rain = 0
KAM2 060249Z 20004KT 03/M02 A3031 RMK A01 T00271015  RH  074%=      5-min Rain = 0
KAM2 060250Z 20004KT 03/M01 A3031 RMK A01 T00271014  RH  074%=      5-min Rain = 0
KAM2 060251Z 19004KT 03/M02 A3031 RMK A01 T00271015  RH  074%=      5-min Rain = 0
KAM2 060252Z 19003KT 03/M02 A3031 RMK A01 T00261016  RH  074%=      5-min Rain = 0
KAM2 060253Z 19003KT 03/M02 A3031 RMK A01 T00261016  RH  074%=      5-min Rain = 0
KAM2 060254Z 19003KT 03/M02 A3031 RMK A01 T00261015  RH  074%=      5-min Rain = 0
KAM2 060255Z 19003KT 03/M02 A3032 RMK A01 T00261015  RH  075%=      5-min Rain = 0
KAM2 060256Z 19003KT 03/M02 A3032 RMK A01 T00261015  RH  075%=      5-min Rain = 0
KAM2 060257Z 19003KT 03/M02 A3032 RMK A01 T00251015  RH  075%=      5-min Rain = 0
KAM2 060258Z 19002KT 03/M02 A3032 RMK A01 T00251015  RH  075%=      5-min Rain = 0
KAM2 060259Z 19002KT 03/M01 A3032 RMK A01 T00251014  RH  075%=      5-min Rain = 0
KAM2 060300Z 18002KT 03/M01 A3032 RMK A01 T00251014  RH  075%=      5-min Rain = 0
KAM2 060301Z 17002KT 03/M01 A3032 RMK A01 T00251014  RH  075%=      5-min Rain = 0
KAM2 060302Z 15002KT 02/M01 A3032 RMK A01 T00241014  RH  076%=      5-min Rain = 0
KAM2 060303Z 15002KT 02/M01 A3032 RMK A01 T00241014  RH  076%=      5-min Rain = 0
KAM2 060304Z 16002KT 03/M01 A3032 RMK A01 T00251013  RH  076%=      5-min Rain = 0
KAM2 060305Z 17002KT 03/M01 A3032 RMK A01 T00251013  RH  076%=      5-min Rain = 0
KAM2 060306Z 17003KT 03/M01 A3032 RMK A01 T00251013  RH  076%=      5-min Rain = 0
KAM2 060307Z 18002KT 02/M02 A3032 RMK A01 T00241015  RH  075%=      5-min Rain = 0
KAM2 060308Z 18003KT 02/M02 A3032 RMK A01 T00221018  RH  075%=      5-min Rain = 0
KAM2 060309Z 18003KT 02/M02 A3032 RMK A01 T00201019  RH  076%=      5-min Rain = 0
KAM2 060310Z 18003KT 02/M02 A3032 RMK A01 T00181020  RH  076%=      5-min Rain = 0
KAM2 060311Z 19003KT 02/M02 A3032 RMK A01 T00161020  RH  077%=      5-min Rain = 0
KAM2 060312Z 19004KT 02/M02 A3032 RMK A01 T00151021  RH  077%=      5-min Rain = 0
KAM2 060313Z 19004KT 02/M02 A3032 RMK A01 T00151022  RH  076%=      5-min Rain = 0
KAM2 060314Z 19005KT 02/M02 A3032 RMK A01 T00151022  RH  076%=      5-min Rain = 0
KAM2 060315Z 19005KT 02/M02 A3032 RMK A01 T00151022  RH  077%=      5-min Rain = 0
KAM2 060316Z 19004KT 02/M02 A3032 RMK A01 T00151020  RH  078%=      5-min Rain = 0
KAM2 060317Z 19005KT 02/M02 A3032 RMK A01 T00151019  RH  078%=      5-min Rain = 0
KAM2 060318Z 19004KT 02/M02 A3032 RMK A01 T00161019  RH  078%=      5-min Rain = 0
KAM2 060319Z 19003KT 02/M02 A3032 RMK A01 T00161018  RH  078%=      5-min Rain = 0
KAM2 060320Z 19003KT 02/M02 A3032 RMK A01 T00161018  RH  078%=      5-min Rain = 0
KAM2 060321Z 19002KT 02/M02 A3032 RMK A01 T00161019  RH  078%=      5-min Rain = 0
KAM2 060322Z 18002KT 02/M02 A3032 RMK A01 T00151020  RH  077%=      5-min Rain = 0
KAM2 060323Z 18002KT 01/M02 A3032 RMK A01 T00141022  RH  077%=      5-min Rain = 0
KAM2 060324Z 18002KT 01/M02 A3032 RMK A01 T00141021  RH  078%=      5-min Rain = 0
KAM2 060325Z 18002KT 01/M02 A3032 RMK A01 T00141020  RH  078%=      5-min Rain = 0
KAM2 060326Z 18002KT 01/M02 A3032 RMK A01 T00141019  RH  079%=      5-min Rain = 0
KAM2 060327Z 18002KT 01/M02 A3032 RMK A01 T00131019  RH  079%=      5-min Rain = 0
KAM2 060328Z 18002KT 01/M02 A3032 RMK A01 T00141019  RH  079%=      5-min Rain = 0
KAM2 060329Z 18002KT 01/M02 A3032 RMK A01 T00131019  RH  079%=      5-min Rain = 0
KAM2 060330Z 18002KT 01/M02 A3032 RMK A01 T00131020  RH  079%=      5-min Rain = 0
KAM2 060331Z 18002KT 01/M02 A3033 RMK A01 T00121021  RH  079%=      5-min Rain = 0
KAM2 060332Z 18002KT 01/M02 A3033 RMK A01 T00111022  RH  079%=      5-min Rain = 0
KAM2 060333Z 18002KT 01/M02 A3033 RMK A01 T00101023  RH  079%=      5-min Rain = 0
KAM2 060334Z 18002KT 01/M02 A3033 RMK A01 T00101022  RH  079%=      5-min Rain = 0
KAM2 060335Z 18002KT 01/M02 A3033 RMK A01 T00091022  RH  080%=      5-min Rain = 0
KAM2 060336Z 19002KT 01/M02 A3032 RMK A01 T00091022  RH  080%=      5-min Rain = 0
KAM2 060337Z 19002KT 01/M02 A3032 RMK A01 T00091022  RH  080%=      5-min Rain = 0
KAM2 060338Z 19003KT 01/M02 A3033 RMK A01 T00091021  RH  080%=      5-min Rain = 0
KAM2 060339Z 18003KT 01/M02 A3033 RMK A01 T00091020  RH  081%=      5-min Rain = 0
KAM2 060340Z 18004KT 01/M02 A3033 RMK A01 T00101019  RH  081%=      5-min Rain = 0
KAM2 060341Z 17004KT 01/M02 A3033 RMK A01 T00111019  RH  080%=      5-min Rain = 0
KAM2 060342Z 18004KT 01/M02 A3033 RMK A01 T00111020  RH  080%=      5-min Rain = 0
KAM2 060343Z 17003KT 01/M02 A3033 RMK A01 T00121020  RH  079%=      5-min Rain = 0
KAM2 060344Z 18004KT 01/M02 A3033 RMK A01 T00121020  RH  079%=      5-min Rain = 0
KAM2 060345Z 18003KT 01/M02 A3033 RMK A01 T00111021  RH  079%=      5-min Rain = 0
KAM2 060346Z 18003KT 01/M02 A3033 RMK A01 T00101022  RH  079%=      5-min Rain = 0
KAM2 060347Z 18003KT 01/M02 A3033 RMK A01 T00101022  RH  079%=      5-min Rain = 0
KAM2 060348Z 18003KT 01/M02 A3033 RMK A01 T00091023  RH  079%=      5-min Rain = 0
KAM2 060349Z 18003KT 01/M02 A3033 RMK A01 T00081023  RH  079%=      5-min Rain = 0
KAM2 060350Z 18004KT 01/M02 A3033 RMK A01 T00081023  RH  080%=      5-min Rain = 0
KAM2 060351Z 18004KT 01/M02 A3033 RMK A01 T00081022  RH  080%=      5-min Rain = 0
KAM2 060352Z 18004KT 01/M02 A3033 RMK A01 T00071022  RH  081%=      5-min Rain = 0
KAM2 060353Z 18004KT 01/M02 A3033 RMK A01 T00071022  RH  081%=      5-min Rain = 0
KAM2 060354Z 18004KT 01/M02 A3033 RMK A01 T00071022  RH  081%=      5-min Rain = 0
KAM2 060355Z 19004KT 01/M02 A3033 RMK A01 T00071023  RH  081%=      5-min Rain = 0
KAM2 060356Z 18004KT 01/M02 A3033 RMK A01 T00071023  RH  081%=      5-min Rain = 0
KAM2 060357Z 18004KT 01/M02 A3033 RMK A01 T00071022  RH  081%=      5-min Rain = 0
KAM2 060358Z 18004KT 01/M02 A3033 RMK A01 T00071022  RH  081%=      5-min Rain = 0
KAM2 060359Z 18004KT 01/M02 A3033 RMK A01 T00071022  RH  081%=      5-min Rain = 0
KAM2 060400Z 19004KT 01/M02 A3033 RMK A01 T00071023  RH  081%=      5-min Rain = 0
KAM2 060401Z 19003KT 01/M02 A3033 RMK A01 T00061023  RH  081%=      5-min Rain = 0
KAM2 060402Z 19004KT 01/M02 A3033 RMK A01 T00051024  RH  081%=      5-min Rain = 0
KAM2 060403Z 19004KT 00/M03 A3033 RMK A01 T00041025  RH  081%=      5-min Rain = 0
KAM2 060404Z 19004KT 00/M03 A3033 RMK A01 T00041025  RH  081%=      5-min Rain = 0
KAM2 060405Z 19003KT 00/M03 A3033 RMK A01 T00041025  RH  081%=      5-min Rain = 0
KAM2 060406Z 19004KT 00/M03 A3033 RMK A01 T00041025  RH  081%=      5-min Rain = 0
KAM2 060407Z 19004KT 00/M03 A3033 RMK A01 T00031025  RH  082%=      5-min Rain = 0
KAM2 060408Z 19003KT 00/M02 A3033 RMK A01 T00041024  RH  082%=      5-min Rain = 0
KAM2 060409Z 18003KT 00/M02 A3033 RMK A01 T00041024  RH  082%=      5-min Rain = 0
KAM2 060410Z 18003KT 00/M02 A3033 RMK A01 T00041023  RH  082%=      5-min Rain = 0
KAM2 060411Z 18003KT 00/M02 A3033 RMK A01 T00041023  RH  082%=      5-min Rain = 0
KAM2 060412Z 18003KT 01/M02 A3033 RMK A01 T00051023  RH  082%=      5-min Rain = 0
KAM2 060413Z 18003KT 00/M02 A3033 RMK A01 T00041023  RH  082%=      5-min Rain = 0
KAM2 060414Z 18003KT 01/M02 A3033 RMK A01 T00051023  RH  082%=      5-min Rain = 0
KAM2 060415Z 18003KT 00/M02 A3033 RMK A01 T00041023  RH  082%=      5-min Rain = 0
KAM2 060416Z 18004KT 00/M02 A3033 RMK A01 T00041023  RH  082%=      5-min Rain = 0
KAM2 060417Z 18004KT 01/M02 A3033 RMK A01 T00051022  RH  082%=      5-min Rain = 0
KAM2 060418Z 18004KT 01/M02 A3033 RMK A01 T00051022  RH  082%=      5-min Rain = 0
KAM2 060419Z 18004KT 01/M02 A3033 RMK A01 T00051022  RH  082%=      5-min Rain = 0
KAM2 060420Z 18004KT 01/M02 A3033 RMK A01 T00051021  RH  082%=      5-min Rain = 0
KAM2 060421Z 18005KT 01/M02 A3033 RMK A01 T00051021  RH  083%=      5-min Rain = 0
KAM2 060422Z 18005KT 01/M02 A3033 RMK A01 T00061020  RH  083%=      5-min Rain = 0
KAM2 060423Z 18005KT 01/M02 A3034 RMK A01 T00061021  RH  083%=      5-min Rain = 0
KAM2 060424Z 18005KT 01/M02 A3034 RMK A01 T00061021  RH  082%=      5-min Rain = 0
KAM2 060425Z 18005KT 01/M02 A3034 RMK A01 T00061020  RH  083%=      5-min Rain = 0
KAM2 060426Z 18005KT 01/M02 A3034 RMK A01 T00061020  RH  083%=      5-min Rain = 0
KAM2 060427Z 18005KT 01/M02 A3034 RMK A01 T00061020  RH  083%=      5-min Rain = 0
KAM2 060428Z 18005KT 01/M02 A3034 RMK A01 T00061020  RH  083%=      5-min Rain = 0
KAM2 060429Z 17005KT 01/M02 A3034 RMK A01 T00061019  RH  083%=      5-min Rain = 0
KAM2 060430Z 17005KT 01/M02 A3034 RMK A01 T00071019  RH  083%=      5-min Rain = 0
KAM2 060431Z 18005KT 01/M02 A3034 RMK A01 T00071019  RH  083%=      5-min Rain = 0
KAM2 060432Z 18005KT 01/M02 A3034 RMK A01 T00071019  RH  083%=      5-min Rain = 0
KAM2 060433Z 18005KT 01/M02 A3034 RMK A01 T00071019  RH  083%=      5-min Rain = 0
KAM2 060434Z 18005KT 01/M02 A3034 RMK A01 T00071019  RH  083%=      5-min Rain = 0
KAM2 060435Z 17005KT 01/M02 A3034 RMK A01 T00071019  RH  083%=      5-min Rain = 0
KAM2 060436Z 17004KT 01/M02 A3033 RMK A01 T00071019  RH  082%=      5-min Rain = 0
KAM2 060437Z 17004KT 01/M02 A3033 RMK A01 T00071020  RH  082%=      5-min Rain = 0
KAM2 060438Z 17004KT 01/M02 A3033 RMK A01 T00071020  RH  082%=      5-min Rain = 0
KAM2 060439Z 17004KT 01/M02 A3033 RMK A01 T00071020  RH  082%=      5-min Rain = 0
KAM2 060440Z 18004KT 01/M02 A3033 RMK A01 T00071021  RH  082%=      5-min Rain = 0
KAM2 060441Z 18004KT 01/M02 A3033 RMK A01 T00071021  RH  082%=      5-min Rain = 0
KAM2 060442Z 18005KT 01/M02 A3033 RMK A01 T00061022  RH  082%=      5-min Rain = 0
KAM2 060443Z 18004KT 01/M02 A3033 RMK A01 T00051022  RH  082%=      5-min Rain = 0
KAM2 060444Z 17004KT 01/M02 A3034 RMK A01 T00051021  RH  083%=      5-min Rain = 0
KAM2 060445Z 16004KT 01/M02 A3034 RMK A01 T00051021  RH  083%=      5-min Rain = 0
KAM2 060446Z 17004KT 01/M02 A3034 RMK A01 T00051021  RH  083%=      5-min Rain = 0
KAM2 060447Z 17005KT 01/M02 A3034 RMK A01 T00051021  RH  082%=      5-min Rain = 0
KAM2 060448Z 18005KT 01/M02 A3034 RMK A01 T00051021  RH  082%=      5-min Rain = 0
KAM2 060449Z 18005KT 01/M02 A3034 RMK A01 T00051020  RH  083%=      5-min Rain = 0
KAM2 060450Z 17005KT 01/M02 A3034 RMK A01 T00061019  RH  084%=      5-min Rain = 0
KAM2 060451Z 17005KT 01/M02 A3034 RMK A01 T00071019  RH  083%=      5-min Rain = 0
KAM2 060452Z 17005KT 01/M02 A3034 RMK A01 T00071019  RH  083%=      5-min Rain = 0
KAM2 060453Z 17004KT 01/M02 A3034 RMK A01 T00071018  RH  084%=      5-min Rain = 0
KAM2 060454Z 17004KT 01/M02 A3034 RMK A01 T00071017  RH  084%=      5-min Rain = 0
KAM2 060455Z 17003KT 01/M02 A3034 RMK A01 T00071017  RH  084%=      5-min Rain = 0
KAM2 060456Z 17004KT 01/M02 A3034 RMK A01 T00071017  RH  084%=      5-min Rain = 0
KAM2 060457Z 16003KT 01/M02 A3034 RMK A01 T00071017  RH  084%=      5-min Rain = 0
KAM2 060458Z 15003KT 01/M02 A3034 RMK A01 T00071017  RH  084%=      5-min Rain = 0
KAM2 060459Z 16003KT 01/M02 A3034 RMK A01 T00071016  RH  084%=      5-min Rain = 0
KAM2 060500Z 16003KT 01/M02 A3034 RMK A01 T00071016  RH  085%=      5-min Rain = 0
KAM2 060501Z 17003KT 01/M02 A3034 RMK A01 T00071016  RH  085%=      5-min Rain = 0
KAM2 060502Z 16003KT 01/M02 A3034 RMK A01 T00071015  RH  085%=      5-min Rain = 0
KAM2 060503Z 17003KT 01/M02 A3034 RMK A01 T00081015  RH  085%=      5-min Rain = 0
KAM2 060504Z 16003KT 01/M02 A3034 RMK A01 T00081016  RH  084%=      5-min Rain = 0
KAM2 060505Z 16003KT 01/M02 A3034 RMK A01 T00071017  RH  084%=      5-min Rain = 0
KAM2 060506Z 16003KT 01/M02 A3034 RMK A01 T00061018  RH  084%=      5-min Rain = 0
KAM2 060507Z 16003KT 01/M02 A3034 RMK A01 T00051019  RH  084%=      5-min Rain = 0
KAM2 060508Z 17003KT 00/M02 A3034 RMK A01 T00041019  RH  085%=      5-min Rain = 0
KAM2 060509Z 17003KT 00/M02 A3034 RMK A01 T00041020  RH  084%=      5-min Rain = 0
KAM2 060510Z 17004KT 00/M02 A3034 RMK A01 T00031020  RH  084%=      5-min Rain = 0
KAM2 060511Z 17004KT 00/M02 A3034 RMK A01 T00031021  RH  084%=      5-min Rain = 0
KAM2 060512Z 18004KT 00/M02 A3034 RMK A01 T00011021  RH  085%=      5-min Rain = 0
KAM2 060513Z 18004KT 00/M02 A3034 RMK A01 T00011020  RH  085%=      5-min Rain = 0
KAM2 060514Z 17004KT 00/M02 A3034 RMK A01 T00011019  RH  086%=      5-min Rain = 0
KAM2 060515Z 17003KT 00/M02 A3034 RMK A01 T00011019  RH  086%=      5-min Rain = 0
KAM2 060516Z 17003KT 00/M02 A3034 RMK A01 T00011019  RH  086%=      5-min Rain = 0
KAM2 060517Z 17004KT 00/M02 A3034 RMK A01 T00011019  RH  086%=      5-min Rain = 0
KAM2 060518Z 18004KT 00/M02 A3034 RMK A01 T00021018  RH  086%=      5-min Rain = 0
KAM2 060519Z 18004KT 00/M02 A3034 RMK A01 T00021018  RH  086%=      5-min Rain = 0
KAM2 060520Z 18004KT 00/M02 A3034 RMK A01 T00021018  RH  086%=      5-min Rain = 0
KAM2 060521Z 18004KT 00/M02 A3034 RMK A01 T00021018  RH  086%=      5-min Rain = 0
KAM2 060522Z 18004KT 00/M02 A3034 RMK A01 T00021017  RH  087%=      5-min Rain = 0
KAM2 060523Z 18004KT 00/M02 A3034 RMK A01 T00021018  RH  087%=      5-min Rain = 0
KAM2 060524Z 17003KT 00/M02 A3034 RMK A01 T00021018  RH  087%=      5-min Rain = 0
KAM2 060525Z 18004KT 00/M02 A3034 RMK A01 T00021018  RH  087%=      5-min Rain = 0
KAM2 060526Z 18004KT 00/M02 A3034 RMK A01 T00021018  RH  087%=      5-min Rain = 0
KAM2 060527Z 18004KT 00/M02 A3034 RMK A01 T00021018  RH  087%=      5-min Rain = 0
KAM2 060528Z 18005KT 00/M02 A3034 RMK A01 T00021018  RH  087%=      5-min Rain = 0
KAM2 060529Z 18005KT 00/M02 A3034 RMK A01 T00021017  RH  087%=      5-min Rain = 0
KAM2 060530Z 18004KT 00/M02 A3034 RMK A01 T00031017  RH  087%=      5-min Rain = 0
KAM2 060531Z 18005KT 00/M02 A3034 RMK A01 T00031018  RH  086%=      5-min Rain = 0
KAM2 060532Z 18004KT 00/M02 A3034 RMK A01 T00021018  RH  086%=      5-min Rain = 0
KAM2 060533Z 18004KT 00/M02 A3034 RMK A01 T00021019  RH  086%=      5-min Rain = 0
KAM2 060534Z 18004KT 00/M02 A3034 RMK A01 T00011019  RH  086%=      5-min Rain = 0
KAM2 060535Z 18004KT 00/02 A3034 RMK A01 T00000-20  RH  086%=      5-min Rain = 0
KAM2 060536Z 18004KT 00/02 A3034 RMK A01 T00-00-21  RH  086%=      5-min Rain = 0
KAM2 060537Z 18004KT 00/02 A3034 RMK A01 T00-00-20  RH  086%=      5-min Rain = 0
KAM2 060538Z 18004KT 00/02 A3034 RMK A01 T00-00-19  RH  087%=      5-min Rain = 0
KAM2 060539Z 18004KT 00/02 A3034 RMK A01 T00-00-19  RH  087%=      5-min Rain = 0
KAM2 060540Z 18004KT 00/02 A3034 RMK A01 T00-00-19  RH  087%=      5-min Rain = 0
KAM2 060541Z 18004KT M00/M02 A3034 RMK A01 T10011019  RH  088%=      5-min Rain = 0
KAM2 060542Z 18004KT M00/M02 A3034 RMK A01 T10011018  RH  088%=      5-min Rain = 0
KAM2 060543Z 18003KT 00/02 A3034 RMK A01 T00-00-18  RH  088%=      5-min Rain = 0
KAM2 060544Z 18004KT M00/M02 A3034 RMK A01 T10011018  RH  088%=      5-min Rain = 0
KAM2 060545Z 19004KT M00/M02 A3034 RMK A01 T10011017  RH  089%=      5-min Rain = 0
KAM2 060546Z 19004KT M00/M02 A3034 RMK A01 T10011016  RH  089%=      5-min Rain = 0
KAM2 060547Z 18005KT 00/02 A3034 RMK A01 T00-00-15  RH  090%=      5-min Rain = 0
KAM2 060548Z 18005KT 00/02 A3034 RMK A01 T00-00-16  RH  089%=      5-min Rain = 0
KAM2 060549Z 18005KT 00/02 A3034 RMK A01 T00-00-15  RH  089%=      5-min Rain = 0
KAM2 060550Z 18005KT 00/02 A3034 RMK A01 T00-00-16  RH  089%=      5-min Rain = 0
KAM2 060551Z 18004KT 00/02 A3034 RMK A01 T00-00-16  RH  089%=      5-min Rain = 0
KAM2 060552Z 18004KT 00/02 A3034 RMK A01 T00-00-16  RH  089%=      5-min Rain = 0
KAM2 060553Z 18004KT 00/02 A3033 RMK A01 T00-00-16  RH  089%=      5-min Rain = 0
KAM2 060554Z 18005KT 00/02 A3033 RMK A01 T00-00-16  RH  089%=      5-min Rain = 0
KAM2 060555Z 18004KT 00/02 A3033 RMK A01 T00-00-16  RH  089%=      5-min Rain = 0
KAM2 060556Z 18004KT 00/02 A3033 RMK A01 T00000-15  RH  089%=      5-min Rain = 0
KAM2 060557Z 18004KT 00/M02 A3033 RMK A01 T00011015  RH  089%=      5-min Rain = 0
KAM2 060558Z 18004KT 00/02 A3033 RMK A01 T00000-16  RH  089%=      5-min Rain = 0
KAM2 060559Z 18004KT 00/02 A3033 RMK A01 T00000-16  RH  089%=      5-min Rain = 0

Page generated in 0.1403 seconds.